<?xml version="1.0" encoding="UTF-8" standalone="no" ?>
<gpx xmlns="http://www.topografix.com/GPX/1/1" xmlns:xsi="http://www.w3.org/2001/XMLSchema-instance" xsi:schemaLocation="http://www.topografix.com/GPX/1/1 http://www.topografix.com/GPX/1/1/gpx.xsd" version="1.1" creator="VisuGPX - https://www.visugpx.com">
  <metadata>
    <name>04 - Mallemoisson - Mirabeau - Mallemoisson</name>
    <desc><![CDATA[Nous étions une douzaine de randonneurs à prendre le départ depuis le parking de Mallemoisson. La première étape est St Pons mais nous décidons d\'une première halte bien avant car le soleil chauffe déjà l\'air et nous voulons enlever quelques couches.
Après St Pons, nous rejoignons le pont pour passer la Duyes, rejoindre les Thumins où nous croisons un lion (non, je n\'ai pas bu, nous avons croisé un lion). Le château, enfin ce qui en reste, est vite contourné et nous attaquons enfin la montée qui nous amène à l\'église ruinée, malheureusement tagguée par des idiots.
Reprenant la route (et les montées) nous passons à proximité des ruines de Briançon puis atteignons la chapelle St Philippe où nous décidons de faire une vrai halte pour le repas.
Au départ de cette chapelle restaurée, nous prenons la direction de l\'ancien hameau de la Colle où nous décidons de changer un peu le programme et de redescendre directement vers les Thumins.
Après quelques photos des ânes, nous repassons par le pont sur la Duyes et cheminons vers le vieux Mallemoisson, son élevage d\'ânes (qui donne l\'occasion de faire de nouvelles photos) et ses vieilles pierres.
A l\'Hostal, le groupe passe devant la tour de guet, devenue tour horloge puis pigeonnier. On descend par les Cathelières et on regagne les voitures.]]></desc>
  </metadata>
  <wpt lat="44.05802" lon="6.0975">
    <ele>579.9</ele>
    <name><![CDATA[Château]]></name>
  </wpt>
  <wpt lat="44.04869" lon="6.1267">
    <ele>563.1</ele>
    <name><![CDATA[Gauche]]></name>
    <desc><![CDATA[Chemin de L'Hostal]]></desc>
    <cmt><![CDATA[Chemin de L'Hostal]]></cmt>
  </wpt>
  <wpt lat="44.05818" lon="6.08747">
    <ele>664.8</ele>
    <name><![CDATA[Mirabeau]]></name>
  </wpt>
  <wpt lat="44.05799" lon="6.0789">
    <ele>648.3</ele>
    <name><![CDATA[R Briançon]]></name>
  </wpt>
  <wpt lat="44.04974" lon="6.08937">
    <ele>652.1</ele>
    <name><![CDATA[R La Colle]]></name>
  </wpt>
  <wpt lat="44.05083" lon="6.12115">
    <ele>553.5</ele>
    <name><![CDATA[Ruines]]></name>
  </wpt>
  <wpt lat="44.05005" lon="6.0822">
    <ele>776.2</ele>
    <name><![CDATA[St Philippe]]></name>
  </wpt>
  <wpt lat="44.0486" lon="6.1116">
    <ele>522.7</ele>
    <name><![CDATA[St Pons]]></name>
  </wpt>
  <trk>
    <name><![CDATA[Mallemoisson]]></name>
    <trkseg>
      <trkpt lat="44.0417" lon="6.126">
        <ele>504.34887695312</ele>
        <time>2013-12-07T08:52:58Z</time>
      </trkpt>
      <trkpt lat="44.0417" lon="6.126">
        <ele>503.8681640625</ele>
        <time>2013-12-07T08:53:07Z</time>
      </trkpt>
      <trkpt lat="44.04172" lon="6.12592">
        <ele>504.34887695312</ele>
        <time>2013-12-07T08:53:21Z</time>
      </trkpt>
      <trkpt lat="44.04172" lon="6.12593">
        <ele>505.31018066406</ele>
        <time>2013-12-07T08:53:46Z</time>
      </trkpt>
      <trkpt lat="44.04172" lon="6.12593">
        <ele>505.31018066406</ele>
        <time>2013-12-07T08:54:19Z</time>
      </trkpt>
      <trkpt lat="44.04172" lon="6.12584">
        <ele>504.82946777344</ele>
        <time>2013-12-07T08:55:37Z</time>
      </trkpt>
      <trkpt lat="44.04176" lon="6.12577">
        <ele>505.31018066406</ele>
        <time>2013-12-07T08:55:43Z</time>
      </trkpt>
      <trkpt lat="44.04182" lon="6.12568">
        <ele>505.31018066406</ele>
        <time>2013-12-07T08:55:51Z</time>
      </trkpt>
      <trkpt lat="44.04187" lon="6.12554">
        <ele>505.31018066406</ele>
        <time>2013-12-07T08:56:07Z</time>
      </trkpt>
      <trkpt lat="44.04188" lon="6.12554">
        <ele>505.31018066406</ele>
        <time>2013-12-07T08:56:12Z</time>
      </trkpt>
      <trkpt lat="44.04205" lon="6.12551">
        <ele>505.79089355469</ele>
        <time>2013-12-07T08:56:28Z</time>
      </trkpt>
      <trkpt lat="44.04206" lon="6.12548">
        <ele>505.79089355469</ele>
        <time>2013-12-07T08:56:31Z</time>
      </trkpt>
      <trkpt lat="44.04208" lon="6.12546">
        <ele>505.79089355469</ele>
        <time>2013-12-07T08:56:34Z</time>
      </trkpt>
      <trkpt lat="44.04216" lon="6.12538">
        <ele>505.79089355469</ele>
        <time>2013-12-07T08:56:43Z</time>
      </trkpt>
      <trkpt lat="44.0422" lon="6.1253">
        <ele>505.79089355469</ele>
        <time>2013-12-07T08:56:48Z</time>
      </trkpt>
      <trkpt lat="44.04236" lon="6.12509">
        <ele>506.271484375</ele>
        <time>2013-12-07T08:57:07Z</time>
      </trkpt>
      <trkpt lat="44.04255" lon="6.12488">
        <ele>507.71350097656</ele>
        <time>2013-12-07T08:57:30Z</time>
      </trkpt>
      <trkpt lat="44.04269" lon="6.12473">
        <ele>508.19409179688</ele>
        <time>2013-12-07T08:57:45Z</time>
      </trkpt>
      <trkpt lat="44.04287" lon="6.12464">
        <ele>508.67468261719</ele>
        <time>2013-12-07T08:58:01Z</time>
      </trkpt>
      <trkpt lat="44.04298" lon="6.12458">
        <ele>509.15539550781</ele>
        <time>2013-12-07T08:58:12Z</time>
      </trkpt>
      <trkpt lat="44.0432" lon="6.12449">
        <ele>510.11669921875</ele>
        <time>2013-12-07T08:58:30Z</time>
      </trkpt>
      <trkpt lat="44.04322" lon="6.12448">
        <ele>510.11669921875</ele>
        <time>2013-12-07T08:58:31Z</time>
      </trkpt>
      <trkpt lat="44.04338" lon="6.1244">
        <ele>511.07800292969</ele>
        <time>2013-12-07T08:58:45Z</time>
      </trkpt>
      <trkpt lat="44.04351" lon="6.1243">
        <ele>511.55871582031</ele>
        <time>2013-12-07T08:58:57Z</time>
      </trkpt>
      <trkpt lat="44.04356" lon="6.12424">
        <ele>511.55871582031</ele>
        <time>2013-12-07T08:59:02Z</time>
      </trkpt>
      <trkpt lat="44.04362" lon="6.12422">
        <ele>512.52001953125</ele>
        <time>2013-12-07T08:59:09Z</time>
      </trkpt>
      <trkpt lat="44.04372" lon="6.12404">
        <ele>512.03942871094</ele>
        <time>2013-12-07T08:59:27Z</time>
      </trkpt>
      <trkpt lat="44.04373" lon="6.12398">
        <ele>511.55871582031</ele>
        <time>2013-12-07T08:59:31Z</time>
      </trkpt>
      <trkpt lat="44.0437" lon="6.12381">
        <ele>511.55871582031</ele>
        <time>2013-12-07T08:59:43Z</time>
      </trkpt>
      <trkpt lat="44.0437" lon="6.12374">
        <ele>512.03942871094</ele>
        <time>2013-12-07T08:59:48Z</time>
      </trkpt>
      <trkpt lat="44.0437" lon="6.12357">
        <ele>512.52001953125</ele>
        <time>2013-12-07T09:00:02Z</time>
      </trkpt>
      <trkpt lat="44.04371" lon="6.12334">
        <ele>515.40405273438</ele>
        <time>2013-12-07T09:00:21Z</time>
      </trkpt>
      <trkpt lat="44.04372" lon="6.12325">
        <ele>515.88464355469</ele>
        <time>2013-12-07T09:00:25Z</time>
      </trkpt>
      <trkpt lat="44.04377" lon="6.12302">
        <ele>517.80725097656</ele>
        <time>2013-12-07T09:00:39Z</time>
      </trkpt>
      <trkpt lat="44.04385" lon="6.12285">
        <ele>518.7685546875</ele>
        <time>2013-12-07T09:00:55Z</time>
      </trkpt>
      <trkpt lat="44.04387" lon="6.12275">
        <ele>519.72985839844</ele>
        <time>2013-12-07T09:01:04Z</time>
      </trkpt>
      <trkpt lat="44.04395" lon="6.12258">
        <ele>520.69128417969</ele>
        <time>2013-12-07T09:01:18Z</time>
      </trkpt>
      <trkpt lat="44.04395" lon="6.12257">
        <ele>520.69128417969</ele>
        <time>2013-12-07T09:01:19Z</time>
      </trkpt>
      <trkpt lat="44.04397" lon="6.12248">
        <ele>521.17199707031</ele>
        <time>2013-12-07T09:01:25Z</time>
      </trkpt>
      <trkpt lat="44.044" lon="6.12231">
        <ele>522.13317871094</ele>
        <time>2013-12-07T09:01:39Z</time>
      </trkpt>
      <trkpt lat="44.04405" lon="6.12214">
        <ele>523.09460449219</ele>
        <time>2013-12-07T09:01:52Z</time>
      </trkpt>
      <trkpt lat="44.04405" lon="6.1221">
        <ele>523.5751953125</ele>
        <time>2013-12-07T09:01:55Z</time>
      </trkpt>
      <trkpt lat="44.04406" lon="6.12196">
        <ele>524.05578613281</ele>
        <time>2013-12-07T09:02:06Z</time>
      </trkpt>
      <trkpt lat="44.04406" lon="6.12192">
        <ele>524.53649902344</ele>
        <time>2013-12-07T09:02:08Z</time>
      </trkpt>
      <trkpt lat="44.04409" lon="6.12187">
        <ele>525.01721191406</ele>
        <time>2013-12-07T09:02:16Z</time>
      </trkpt>
      <trkpt lat="44.0441" lon="6.12163">
        <ele>525.97839355469</ele>
        <time>2013-12-07T09:02:31Z</time>
      </trkpt>
      <trkpt lat="44.04412" lon="6.12145">
        <ele>527.42041015625</ele>
        <time>2013-12-07T09:02:44Z</time>
      </trkpt>
      <trkpt lat="44.04413" lon="6.1213">
        <ele>528.86254882812</ele>
        <time>2013-12-07T09:02:58Z</time>
      </trkpt>
      <trkpt lat="44.04412" lon="6.12103">
        <ele>530.30444335938</ele>
        <time>2013-12-07T09:03:16Z</time>
      </trkpt>
      <trkpt lat="44.04409" lon="6.12084">
        <ele>531.26574707031</ele>
        <time>2013-12-07T09:03:31Z</time>
      </trkpt>
      <trkpt lat="44.04406" lon="6.12073">
        <ele>532.22705078125</ele>
        <time>2013-12-07T09:03:40Z</time>
      </trkpt>
      <trkpt lat="44.04409" lon="6.12054">
        <ele>533.6689453125</ele>
        <time>2013-12-07T09:03:53Z</time>
      </trkpt>
      <trkpt lat="44.04411" lon="6.12046">
        <ele>534.14965820312</ele>
        <time>2013-12-07T09:03:59Z</time>
      </trkpt>
      <trkpt lat="44.04409" lon="6.12035">
        <ele>535.11096191406</ele>
        <time>2013-12-07T09:04:07Z</time>
      </trkpt>
      <trkpt lat="44.0441" lon="6.12018">
        <ele>536.55310058594</ele>
        <time>2013-12-07T09:04:18Z</time>
      </trkpt>
      <trkpt lat="44.0441" lon="6.12">
        <ele>537.51428222656</ele>
        <time>2013-12-07T09:04:28Z</time>
      </trkpt>
      <trkpt lat="44.04414" lon="6.11993">
        <ele>538.47570800781</ele>
        <time>2013-12-07T09:04:35Z</time>
      </trkpt>
      <trkpt lat="44.04419" lon="6.1198">
        <ele>540.39831542969</ele>
        <time>2013-12-07T09:04:47Z</time>
      </trkpt>
      <trkpt lat="44.0442" lon="6.11977">
        <ele>540.87890625</ele>
        <time>2013-12-07T09:04:49Z</time>
      </trkpt>
      <trkpt lat="44.04426" lon="6.11965">
        <ele>542.32092285156</ele>
        <time>2013-12-07T09:05:01Z</time>
      </trkpt>
      <trkpt lat="44.04427" lon="6.11958">
        <ele>542.80151367188</ele>
        <time>2013-12-07T09:05:06Z</time>
      </trkpt>
      <trkpt lat="44.04429" lon="6.11957">
        <ele>543.28210449219</ele>
        <time>2013-12-07T09:05:08Z</time>
      </trkpt>
      <trkpt lat="44.0443" lon="6.1194">
        <ele>544.24365234375</ele>
        <time>2013-12-07T09:05:22Z</time>
      </trkpt>
      <trkpt lat="44.04429" lon="6.11935">
        <ele>544.72424316406</ele>
        <time>2013-12-07T09:05:38Z</time>
      </trkpt>
      <trkpt lat="44.0443" lon="6.11935">
        <ele>544.24365234375</ele>
        <time>2013-12-07T09:06:37Z</time>
      </trkpt>
      <trkpt lat="44.04434" lon="6.11927">
        <ele>544.24365234375</ele>
        <time>2013-12-07T09:08:26Z</time>
      </trkpt>
      <trkpt lat="44.04438" lon="6.11907">
        <ele>545.20483398438</ele>
        <time>2013-12-07T09:08:38Z</time>
      </trkpt>
      <trkpt lat="44.04441" lon="6.11889">
        <ele>546.16625976562</ele>
        <time>2013-12-07T09:08:49Z</time>
      </trkpt>
      <trkpt lat="44.04447" lon="6.11883">
        <ele>546.64685058594</ele>
        <time>2013-12-07T09:08:56Z</time>
      </trkpt>
      <trkpt lat="44.04456" lon="6.11858">
        <ele>548.5693359375</ele>
        <time>2013-12-07T09:09:14Z</time>
      </trkpt>
      <trkpt lat="44.04466" lon="6.11831">
        <ele>550.4921875</ele>
        <time>2013-12-07T09:09:33Z</time>
      </trkpt>
      <trkpt lat="44.04472" lon="6.11814">
        <ele>551.45336914062</ele>
        <time>2013-12-07T09:09:53Z</time>
      </trkpt>
      <trkpt lat="44.04478" lon="6.11793">
        <ele>552.41455078125</ele>
        <time>2013-12-07T09:10:15Z</time>
      </trkpt>
      <trkpt lat="44.04488" lon="6.11759">
        <ele>553.85668945312</ele>
        <time>2013-12-07T09:10:37Z</time>
      </trkpt>
      <trkpt lat="44.0449" lon="6.11751">
        <ele>554.33740234375</ele>
        <time>2013-12-07T09:10:43Z</time>
      </trkpt>
      <trkpt lat="44.04496" lon="6.11733">
        <ele>555.779296875</ele>
        <time>2013-12-07T09:10:57Z</time>
      </trkpt>
      <trkpt lat="44.045" lon="6.11696">
        <ele>557.22143554688</ele>
        <time>2013-12-07T09:11:22Z</time>
      </trkpt>
      <trkpt lat="44.04504" lon="6.11662">
        <ele>559.62475585938</ele>
        <time>2013-12-07T09:11:45Z</time>
      </trkpt>
      <trkpt lat="44.04507" lon="6.11646">
        <ele>561.54736328125</ele>
        <time>2013-12-07T09:11:56Z</time>
      </trkpt>
      <trkpt lat="44.04508" lon="6.11631">
        <ele>562.02807617188</ele>
        <time>2013-12-07T09:12:07Z</time>
      </trkpt>
      <trkpt lat="44.04508" lon="6.11621">
        <ele>563.46997070312</ele>
        <time>2013-12-07T09:12:24Z</time>
      </trkpt>
      <trkpt lat="44.0451" lon="6.11625">
        <ele>562.9892578125</ele>
        <time>2013-12-07T09:12:46Z</time>
      </trkpt>
      <trkpt lat="44.04509" lon="6.1162">
        <ele>563.46997070312</ele>
        <time>2013-12-07T09:12:58Z</time>
      </trkpt>
      <trkpt lat="44.04508" lon="6.11605">
        <ele>564.91186523438</ele>
        <time>2013-12-07T09:13:13Z</time>
      </trkpt>
      <trkpt lat="44.04505" lon="6.11599">
        <ele>565.87329101562</ele>
        <time>2013-12-07T09:13:32Z</time>
      </trkpt>
      <trkpt lat="44.04505" lon="6.116">
        <ele>565.87329101562</ele>
        <time>2013-12-07T09:13:59Z</time>
      </trkpt>
      <trkpt lat="44.04502" lon="6.116">
        <ele>565.87329101562</ele>
        <time>2013-12-07T09:14:19Z</time>
      </trkpt>
      <trkpt lat="44.04504" lon="6.11598">
        <ele>565.392578125</ele>
        <time>2013-12-07T09:14:53Z</time>
      </trkpt>
      <trkpt lat="44.04506" lon="6.11599">
        <ele>565.87329101562</ele>
        <time>2013-12-07T09:14:55Z</time>
      </trkpt>
      <trkpt lat="44.04515" lon="6.11593">
        <ele>566.35375976562</ele>
        <time>2013-12-07T09:15:04Z</time>
      </trkpt>
      <trkpt lat="44.04522" lon="6.1157">
        <ele>568.75708007812</ele>
        <time>2013-12-07T09:15:20Z</time>
      </trkpt>
      <trkpt lat="44.04525" lon="6.11547">
        <ele>571.64086914062</ele>
        <time>2013-12-07T09:15:37Z</time>
      </trkpt>
      <trkpt lat="44.04532" lon="6.11525">
        <ele>573.08325195312</ele>
        <time>2013-12-07T09:15:52Z</time>
      </trkpt>
      <trkpt lat="44.04538" lon="6.11512">
        <ele>574.52514648438</ele>
        <time>2013-12-07T09:16:03Z</time>
      </trkpt>
      <trkpt lat="44.04539" lon="6.11509">
        <ele>574.52514648438</ele>
        <time>2013-12-07T09:16:05Z</time>
      </trkpt>
      <trkpt lat="44.04541" lon="6.11503">
        <ele>575.005859375</ele>
        <time>2013-12-07T09:16:10Z</time>
      </trkpt>
      <trkpt lat="44.04542" lon="6.11499">
        <ele>574.52514648438</ele>
        <time>2013-12-07T09:16:13Z</time>
      </trkpt>
      <trkpt lat="44.04544" lon="6.11496">
        <ele>575.486328125</ele>
        <time>2013-12-07T09:16:16Z</time>
      </trkpt>
      <trkpt lat="44.04552" lon="6.11474">
        <ele>574.52514648438</ele>
        <time>2013-12-07T09:16:35Z</time>
      </trkpt>
      <trkpt lat="44.04565" lon="6.1145">
        <ele>572.12182617188</ele>
        <time>2013-12-07T09:16:58Z</time>
      </trkpt>
      <trkpt lat="44.04574" lon="6.11436">
        <ele>570.6796875</ele>
        <time>2013-12-07T09:17:12Z</time>
      </trkpt>
      <trkpt lat="44.04584" lon="6.11418">
        <ele>568.2763671875</ele>
        <time>2013-12-07T09:17:31Z</time>
      </trkpt>
      <trkpt lat="44.04594" lon="6.11391">
        <ele>565.87329101562</ele>
        <time>2013-12-07T09:17:54Z</time>
      </trkpt>
      <trkpt lat="44.04602" lon="6.11374">
        <ele>563.46997070312</ele>
        <time>2013-12-07T09:18:11Z</time>
      </trkpt>
      <trkpt lat="44.04611" lon="6.11349">
        <ele>561.06665039062</ele>
        <time>2013-12-07T09:18:32Z</time>
      </trkpt>
      <trkpt lat="44.04613" lon="6.11324">
        <ele>558.18286132812</ele>
        <time>2013-12-07T09:18:52Z</time>
      </trkpt>
      <trkpt lat="44.04612" lon="6.11321">
        <ele>557.7021484375</ele>
        <time>2013-12-07T09:18:54Z</time>
      </trkpt>
      <trkpt lat="44.04601" lon="6.11319">
        <ele>555.779296875</ele>
        <time>2013-12-07T09:19:11Z</time>
      </trkpt>
      <trkpt lat="44.04588" lon="6.11313">
        <ele>552.41455078125</ele>
        <time>2013-12-07T09:19:30Z</time>
      </trkpt>
      <trkpt lat="44.0459" lon="6.11295">
        <ele>549.53076171875</ele>
        <time>2013-12-07T09:19:48Z</time>
      </trkpt>
      <trkpt lat="44.04599" lon="6.11276">
        <ele>546.16625976562</ele>
        <time>2013-12-07T09:20:05Z</time>
      </trkpt>
      <trkpt lat="44.04603" lon="6.11269">
        <ele>545.20483398438</ele>
        <time>2013-12-07T09:20:31Z</time>
      </trkpt>
      <trkpt lat="44.04604" lon="6.11266">
        <ele>545.20483398438</ele>
        <time>2013-12-07T09:20:34Z</time>
      </trkpt>
      <trkpt lat="44.0462" lon="6.1124">
        <ele>541.84020996094</ele>
        <time>2013-12-07T09:20:57Z</time>
      </trkpt>
      <trkpt lat="44.04632" lon="6.11216">
        <ele>538.95629882812</ele>
        <time>2013-12-07T09:21:17Z</time>
      </trkpt>
      <trkpt lat="44.04636" lon="6.11194">
        <ele>535.59155273438</ele>
        <time>2013-12-07T09:21:36Z</time>
      </trkpt>
      <trkpt lat="44.04645" lon="6.11171">
        <ele>532.70776367188</ele>
        <time>2013-12-07T09:21:58Z</time>
      </trkpt>
      <trkpt lat="44.04646" lon="6.11149">
        <ele>529.34313964844</ele>
        <time>2013-12-07T09:22:16Z</time>
      </trkpt>
      <trkpt lat="44.04648" lon="6.11131">
        <ele>528.3818359375</ele>
        <time>2013-12-07T09:22:30Z</time>
      </trkpt>
      <trkpt lat="44.04656" lon="6.11121">
        <ele>525.49780273438</ele>
        <time>2013-12-07T09:22:42Z</time>
      </trkpt>
      <trkpt lat="44.04665" lon="6.11114">
        <ele>523.09460449219</ele>
        <time>2013-12-07T09:22:54Z</time>
      </trkpt>
      <trkpt lat="44.04675" lon="6.11104">
        <ele>521.65258789062</ele>
        <time>2013-12-07T09:23:13Z</time>
      </trkpt>
      <trkpt lat="44.04685" lon="6.11093">
        <ele>520.21057128906</ele>
        <time>2013-12-07T09:23:29Z</time>
      </trkpt>
      <trkpt lat="44.04698" lon="6.11083">
        <ele>518.7685546875</ele>
        <time>2013-12-07T09:23:50Z</time>
      </trkpt>
      <trkpt lat="44.0471" lon="6.11067">
        <ele>517.80725097656</ele>
        <time>2013-12-07T09:24:08Z</time>
      </trkpt>
      <trkpt lat="44.04739" lon="6.11032">
        <ele>515.40405273438</ele>
        <time>2013-12-07T09:24:43Z</time>
      </trkpt>
      <trkpt lat="44.04755" lon="6.11013">
        <ele>514.44262695312</ele>
        <time>2013-12-07T09:25:02Z</time>
      </trkpt>
      <trkpt lat="44.04769" lon="6.10996">
        <ele>513.96203613281</ele>
        <time>2013-12-07T09:25:20Z</time>
      </trkpt>
      <trkpt lat="44.04775" lon="6.10991">
        <ele>513.4814453125</ele>
        <time>2013-12-07T09:25:27Z</time>
      </trkpt>
      <trkpt lat="44.04777" lon="6.10991">
        <ele>513.96203613281</ele>
        <time>2013-12-07T09:25:33Z</time>
      </trkpt>
      <trkpt lat="44.04789" lon="6.11">
        <ele>513.4814453125</ele>
        <time>2013-12-07T09:25:47Z</time>
      </trkpt>
      <trkpt lat="44.04789" lon="6.11001">
        <ele>513.4814453125</ele>
        <time>2013-12-07T09:25:48Z</time>
      </trkpt>
      <trkpt lat="44.04794" lon="6.11017">
        <ele>513.96203613281</ele>
        <time>2013-12-07T09:26:02Z</time>
      </trkpt>
      <trkpt lat="44.04801" lon="6.11047">
        <ele>514.92333984375</ele>
        <time>2013-12-07T09:26:23Z</time>
      </trkpt>
      <trkpt lat="44.04811" lon="6.11074">
        <ele>515.40405273438</ele>
        <time>2013-12-07T09:26:44Z</time>
      </trkpt>
      <trkpt lat="44.0482" lon="6.11101">
        <ele>515.88464355469</ele>
        <time>2013-12-07T09:27:04Z</time>
      </trkpt>
      <trkpt lat="44.04829" lon="6.1112">
        <ele>516.365234375</ele>
        <time>2013-12-07T09:27:20Z</time>
      </trkpt>
      <trkpt lat="44.04835" lon="6.11135">
        <ele>515.88464355469</ele>
        <time>2013-12-07T09:27:33Z</time>
      </trkpt>
      <trkpt lat="44.04839" lon="6.11138">
        <ele>516.365234375</ele>
        <time>2013-12-07T09:27:36Z</time>
      </trkpt>
      <trkpt lat="44.04848" lon="6.11165">
        <ele>516.84594726562</ele>
        <time>2013-12-07T09:27:57Z</time>
      </trkpt>
      <trkpt lat="44.04853" lon="6.11192">
        <ele>518.28784179688</ele>
        <time>2013-12-07T09:28:15Z</time>
      </trkpt>
      <trkpt lat="44.04853" lon="6.11195">
        <ele>518.28784179688</ele>
        <time>2013-12-07T09:28:17Z</time>
      </trkpt>
      <trkpt lat="44.04859" lon="6.11212">
        <ele>518.28784179688</ele>
        <time>2013-12-07T09:28:29Z</time>
      </trkpt>
      <trkpt lat="44.04873" lon="6.11205">
        <ele>518.28784179688</ele>
        <time>2013-12-07T09:28:45Z</time>
      </trkpt>
      <trkpt lat="44.0489" lon="6.11186">
        <ele>518.28784179688</ele>
        <time>2013-12-07T09:29:05Z</time>
      </trkpt>
      <trkpt lat="44.04917" lon="6.11159">
        <ele>518.28784179688</ele>
        <time>2013-12-07T09:29:34Z</time>
      </trkpt>
      <trkpt lat="44.04944" lon="6.1113">
        <ele>518.28784179688</ele>
        <time>2013-12-07T09:30:05Z</time>
      </trkpt>
      <trkpt lat="44.04957" lon="6.11116">
        <ele>518.7685546875</ele>
        <time>2013-12-07T09:30:23Z</time>
      </trkpt>
      <trkpt lat="44.04977" lon="6.11095">
        <ele>518.7685546875</ele>
        <time>2013-12-07T09:30:44Z</time>
      </trkpt>
      <trkpt lat="44.05002" lon="6.11066">
        <ele>519.24926757812</ele>
        <time>2013-12-07T09:31:14Z</time>
      </trkpt>
      <trkpt lat="44.05021" lon="6.11043">
        <ele>518.7685546875</ele>
        <time>2013-12-07T09:31:37Z</time>
      </trkpt>
      <trkpt lat="44.05026" lon="6.11036">
        <ele>519.24926757812</ele>
        <time>2013-12-07T09:31:43Z</time>
      </trkpt>
      <trkpt lat="44.05041" lon="6.1103">
        <ele>518.7685546875</ele>
        <time>2013-12-07T09:31:58Z</time>
      </trkpt>
      <trkpt lat="44.05052" lon="6.11039">
        <ele>517.32666015625</ele>
        <time>2013-12-07T09:32:14Z</time>
      </trkpt>
      <trkpt lat="44.05073" lon="6.11051">
        <ele>516.84594726562</ele>
        <time>2013-12-07T09:32:34Z</time>
      </trkpt>
      <trkpt lat="44.05094" lon="6.11068">
        <ele>517.32666015625</ele>
        <time>2013-12-07T09:32:57Z</time>
      </trkpt>
      <trkpt lat="44.0511" lon="6.11086">
        <ele>516.84594726562</ele>
        <time>2013-12-07T09:33:16Z</time>
      </trkpt>
      <trkpt lat="44.05124" lon="6.11111">
        <ele>516.365234375</ele>
        <time>2013-12-07T09:33:37Z</time>
      </trkpt>
      <trkpt lat="44.05136" lon="6.11127">
        <ele>516.84594726562</ele>
        <time>2013-12-07T09:33:51Z</time>
      </trkpt>
      <trkpt lat="44.0516" lon="6.11137">
        <ele>517.32666015625</ele>
        <time>2013-12-07T09:34:14Z</time>
      </trkpt>
      <trkpt lat="44.05183" lon="6.11143">
        <ele>517.32666015625</ele>
        <time>2013-12-07T09:34:35Z</time>
      </trkpt>
      <trkpt lat="44.05188" lon="6.11145">
        <ele>517.80725097656</ele>
        <time>2013-12-07T09:34:43Z</time>
      </trkpt>
      <trkpt lat="44.05189" lon="6.11149">
        <ele>517.80725097656</ele>
        <time>2013-12-07T09:34:55Z</time>
      </trkpt>
      <trkpt lat="44.05189" lon="6.11152">
        <ele>517.80725097656</ele>
        <time>2013-12-07T09:34:57Z</time>
      </trkpt>
      <trkpt lat="44.05198" lon="6.11161">
        <ele>517.80725097656</ele>
        <time>2013-12-07T09:35:08Z</time>
      </trkpt>
      <trkpt lat="44.05218" lon="6.11168">
        <ele>518.28784179688</ele>
        <time>2013-12-07T09:35:27Z</time>
      </trkpt>
      <trkpt lat="44.05245" lon="6.11178">
        <ele>518.7685546875</ele>
        <time>2013-12-07T09:35:52Z</time>
      </trkpt>
      <trkpt lat="44.05266" lon="6.11182">
        <ele>519.24926757812</ele>
        <time>2013-12-07T09:36:14Z</time>
      </trkpt>
      <trkpt lat="44.05269" lon="6.11197">
        <ele>521.17199707031</ele>
        <time>2013-12-07T09:36:29Z</time>
      </trkpt>
      <trkpt lat="44.05285" lon="6.112">
        <ele>522.13317871094</ele>
        <time>2013-12-07T09:36:46Z</time>
      </trkpt>
      <trkpt lat="44.05286" lon="6.1121">
        <ele>524.05578613281</ele>
        <time>2013-12-07T09:37:01Z</time>
      </trkpt>
      <trkpt lat="44.05275" lon="6.11217">
        <ele>525.97839355469</ele>
        <time>2013-12-07T09:37:14Z</time>
      </trkpt>
      <trkpt lat="44.05273" lon="6.11224">
        <ele>527.42041015625</ele>
        <time>2013-12-07T09:37:29Z</time>
      </trkpt>
      <trkpt lat="44.05274" lon="6.11224">
        <ele>527.42041015625</ele>
        <time>2013-12-07T09:38:16Z</time>
      </trkpt>
      <trkpt lat="44.05297" lon="6.11218">
        <ele>526.93981933594</ele>
        <time>2013-12-07T09:38:35Z</time>
      </trkpt>
      <trkpt lat="44.05335" lon="6.1119">
        <ele>525.49780273438</ele>
        <time>2013-12-07T09:39:56Z</time>
      </trkpt>
      <trkpt lat="44.05352" lon="6.11133">
        <ele>525.49780273438</ele>
        <time>2013-12-07T09:40:38Z</time>
      </trkpt>
      <trkpt lat="44.05356" lon="6.11112">
        <ele>525.01721191406</ele>
        <time>2013-12-07T09:40:59Z</time>
      </trkpt>
      <trkpt lat="44.05363" lon="6.11084">
        <ele>524.05578613281</ele>
        <time>2013-12-07T09:41:17Z</time>
      </trkpt>
      <trkpt lat="44.05375" lon="6.11048">
        <ele>524.05578613281</ele>
        <time>2013-12-07T09:41:41Z</time>
      </trkpt>
      <trkpt lat="44.05383" lon="6.11034">
        <ele>523.09460449219</ele>
        <time>2013-12-07T09:41:52Z</time>
      </trkpt>
      <trkpt lat="44.05385" lon="6.11032">
        <ele>524.05578613281</ele>
        <time>2013-12-07T09:41:54Z</time>
      </trkpt>
      <trkpt lat="44.05397" lon="6.11022">
        <ele>523.09460449219</ele>
        <time>2013-12-07T09:42:07Z</time>
      </trkpt>
      <trkpt lat="44.05428" lon="6.11006">
        <ele>523.09460449219</ele>
        <time>2013-12-07T09:42:32Z</time>
      </trkpt>
      <trkpt lat="44.05444" lon="6.10998">
        <ele>523.09460449219</ele>
        <time>2013-12-07T09:42:47Z</time>
      </trkpt>
      <trkpt lat="44.05446" lon="6.10995">
        <ele>523.09460449219</ele>
        <time>2013-12-07T09:42:51Z</time>
      </trkpt>
      <trkpt lat="44.05441" lon="6.10991">
        <ele>522.13317871094</ele>
        <time>2013-12-07T09:43:02Z</time>
      </trkpt>
      <trkpt lat="44.05435" lon="6.10991">
        <ele>520.69128417969</ele>
        <time>2013-12-07T09:43:16Z</time>
      </trkpt>
      <trkpt lat="44.05434" lon="6.10989">
        <ele>521.17199707031</ele>
        <time>2013-12-07T09:48:48Z</time>
      </trkpt>
      <trkpt lat="44.05434" lon="6.10991">
        <ele>521.17199707031</ele>
        <time>2013-12-07T09:49:22Z</time>
      </trkpt>
      <trkpt lat="44.05434" lon="6.10991">
        <ele>521.65258789062</ele>
        <time>2013-12-07T09:50:43Z</time>
      </trkpt>
      <trkpt lat="44.05433" lon="6.10996">
        <ele>521.65258789062</ele>
        <time>2013-12-07T09:50:59Z</time>
      </trkpt>
      <trkpt lat="44.05431" lon="6.10998">
        <ele>522.13317871094</ele>
        <time>2013-12-07T09:51:02Z</time>
      </trkpt>
      <trkpt lat="44.05425" lon="6.11002">
        <ele>521.65258789062</ele>
        <time>2013-12-07T09:51:07Z</time>
      </trkpt>
      <trkpt lat="44.05419" lon="6.11005">
        <ele>521.65258789062</ele>
        <time>2013-12-07T09:51:12Z</time>
      </trkpt>
      <trkpt lat="44.05405" lon="6.1101">
        <ele>521.17199707031</ele>
        <time>2013-12-07T09:51:24Z</time>
      </trkpt>
      <trkpt lat="44.05397" lon="6.11013">
        <ele>521.17199707031</ele>
        <time>2013-12-07T09:51:31Z</time>
      </trkpt>
      <trkpt lat="44.05392" lon="6.11011">
        <ele>520.69128417969</ele>
        <time>2013-12-07T09:51:35Z</time>
      </trkpt>
      <trkpt lat="44.05387" lon="6.1101">
        <ele>520.69128417969</ele>
        <time>2013-12-07T09:51:40Z</time>
      </trkpt>
      <trkpt lat="44.05385" lon="6.11011">
        <ele>521.17199707031</ele>
        <time>2013-12-07T09:51:42Z</time>
      </trkpt>
      <trkpt lat="44.05382" lon="6.1101">
        <ele>520.69128417969</ele>
        <time>2013-12-07T09:51:47Z</time>
      </trkpt>
      <trkpt lat="44.05368" lon="6.11011">
        <ele>520.21057128906</ele>
        <time>2013-12-07T09:52:00Z</time>
      </trkpt>
      <trkpt lat="44.05354" lon="6.11006">
        <ele>520.21057128906</ele>
        <time>2013-12-07T09:52:17Z</time>
      </trkpt>
      <trkpt lat="44.05339" lon="6.11003">
        <ele>520.21057128906</ele>
        <time>2013-12-07T09:52:38Z</time>
      </trkpt>
      <trkpt lat="44.05316" lon="6.1099">
        <ele>519.24926757812</ele>
        <time>2013-12-07T09:53:00Z</time>
      </trkpt>
      <trkpt lat="44.05307" lon="6.10979">
        <ele>519.24926757812</ele>
        <time>2013-12-07T09:53:13Z</time>
      </trkpt>
      <trkpt lat="44.05292" lon="6.1095">
        <ele>518.7685546875</ele>
        <time>2013-12-07T09:53:36Z</time>
      </trkpt>
      <trkpt lat="44.05278" lon="6.10923">
        <ele>518.28784179688</ele>
        <time>2013-12-07T09:53:56Z</time>
      </trkpt>
      <trkpt lat="44.05259" lon="6.10899">
        <ele>517.80725097656</ele>
        <time>2013-12-07T09:54:19Z</time>
      </trkpt>
      <trkpt lat="44.05245" lon="6.10884">
        <ele>517.32666015625</ele>
        <time>2013-12-07T09:54:36Z</time>
      </trkpt>
      <trkpt lat="44.05227" lon="6.10857">
        <ele>516.84594726562</ele>
        <time>2013-12-07T09:55:00Z</time>
      </trkpt>
      <trkpt lat="44.05218" lon="6.10847">
        <ele>516.84594726562</ele>
        <time>2013-12-07T09:55:10Z</time>
      </trkpt>
      <trkpt lat="44.05195" lon="6.10838">
        <ele>516.365234375</ele>
        <time>2013-12-07T09:55:30Z</time>
      </trkpt>
      <trkpt lat="44.05183" lon="6.10834">
        <ele>515.88464355469</ele>
        <time>2013-12-07T09:55:42Z</time>
      </trkpt>
      <trkpt lat="44.05181" lon="6.10832">
        <ele>516.365234375</ele>
        <time>2013-12-07T09:55:44Z</time>
      </trkpt>
      <trkpt lat="44.05171" lon="6.1083">
        <ele>515.40405273438</ele>
        <time>2013-12-07T09:55:52Z</time>
      </trkpt>
      <trkpt lat="44.0516" lon="6.10825">
        <ele>515.40405273438</ele>
        <time>2013-12-07T09:56:03Z</time>
      </trkpt>
      <trkpt lat="44.05158" lon="6.10825">
        <ele>515.40405273438</ele>
        <time>2013-12-07T09:56:05Z</time>
      </trkpt>
      <trkpt lat="44.05148" lon="6.10818">
        <ele>515.40405273438</ele>
        <time>2013-12-07T09:56:15Z</time>
      </trkpt>
      <trkpt lat="44.05139" lon="6.10811">
        <ele>514.92333984375</ele>
        <time>2013-12-07T09:56:25Z</time>
      </trkpt>
      <trkpt lat="44.05138" lon="6.10812">
        <ele>514.92333984375</ele>
        <time>2013-12-07T09:56:26Z</time>
      </trkpt>
      <trkpt lat="44.05128" lon="6.10807">
        <ele>514.92333984375</ele>
        <time>2013-12-07T09:56:35Z</time>
      </trkpt>
      <trkpt lat="44.05112" lon="6.10801">
        <ele>514.44262695312</ele>
        <time>2013-12-07T09:56:51Z</time>
      </trkpt>
      <trkpt lat="44.05105" lon="6.10796">
        <ele>514.44262695312</ele>
        <time>2013-12-07T09:56:58Z</time>
      </trkpt>
      <trkpt lat="44.051" lon="6.10791">
        <ele>513.96203613281</ele>
        <time>2013-12-07T09:57:04Z</time>
      </trkpt>
      <trkpt lat="44.05084" lon="6.10767">
        <ele>513.4814453125</ele>
        <time>2013-12-07T09:57:23Z</time>
      </trkpt>
      <trkpt lat="44.05068" lon="6.10744">
        <ele>513.4814453125</ele>
        <time>2013-12-07T09:57:41Z</time>
      </trkpt>
      <trkpt lat="44.0505" lon="6.10712">
        <ele>512.03942871094</ele>
        <time>2013-12-07T09:58:06Z</time>
      </trkpt>
      <trkpt lat="44.05036" lon="6.10679">
        <ele>512.52001953125</ele>
        <time>2013-12-07T09:58:29Z</time>
      </trkpt>
      <trkpt lat="44.05026" lon="6.10651">
        <ele>512.52001953125</ele>
        <time>2013-12-07T09:58:49Z</time>
      </trkpt>
      <trkpt lat="44.0503" lon="6.10618">
        <ele>512.03942871094</ele>
        <time>2013-12-07T09:59:12Z</time>
      </trkpt>
      <trkpt lat="44.05028" lon="6.1058">
        <ele>511.55871582031</ele>
        <time>2013-12-07T09:59:35Z</time>
      </trkpt>
      <trkpt lat="44.05029" lon="6.10545">
        <ele>511.07800292969</ele>
        <time>2013-12-07T09:59:59Z</time>
      </trkpt>
      <trkpt lat="44.05037" lon="6.10506">
        <ele>511.07800292969</ele>
        <time>2013-12-07T10:00:26Z</time>
      </trkpt>
      <trkpt lat="44.0504" lon="6.10488">
        <ele>510.59729003906</ele>
        <time>2013-12-07T10:00:45Z</time>
      </trkpt>
      <trkpt lat="44.05048" lon="6.10457">
        <ele>511.07800292969</ele>
        <time>2013-12-07T10:01:04Z</time>
      </trkpt>
      <trkpt lat="44.05057" lon="6.10432">
        <ele>511.07800292969</ele>
        <time>2013-12-07T10:01:22Z</time>
      </trkpt>
      <trkpt lat="44.0507" lon="6.10396">
        <ele>513.4814453125</ele>
        <time>2013-12-07T10:01:48Z</time>
      </trkpt>
      <trkpt lat="44.05081" lon="6.1037">
        <ele>516.365234375</ele>
        <time>2013-12-07T10:02:10Z</time>
      </trkpt>
      <trkpt lat="44.05089" lon="6.10343">
        <ele>518.28784179688</ele>
        <time>2013-12-07T10:02:31Z</time>
      </trkpt>
      <trkpt lat="44.051" lon="6.10307">
        <ele>519.72985839844</ele>
        <time>2013-12-07T10:02:58Z</time>
      </trkpt>
      <trkpt lat="44.05107" lon="6.10287">
        <ele>520.69128417969</ele>
        <time>2013-12-07T10:03:21Z</time>
      </trkpt>
      <trkpt lat="44.05108" lon="6.10272">
        <ele>520.69128417969</ele>
        <time>2013-12-07T10:03:30Z</time>
      </trkpt>
      <trkpt lat="44.05114" lon="6.10251">
        <ele>522.13317871094</ele>
        <time>2013-12-07T10:03:45Z</time>
      </trkpt>
      <trkpt lat="44.05125" lon="6.10227">
        <ele>524.05578613281</ele>
        <time>2013-12-07T10:04:04Z</time>
      </trkpt>
      <trkpt lat="44.05128" lon="6.10223">
        <ele>524.53649902344</ele>
        <time>2013-12-07T10:04:26Z</time>
      </trkpt>
      <trkpt lat="44.05131" lon="6.10217">
        <ele>525.01721191406</ele>
        <time>2013-12-07T10:05:52Z</time>
      </trkpt>
      <trkpt lat="44.05133" lon="6.10215">
        <ele>525.01721191406</ele>
        <time>2013-12-07T10:06:20Z</time>
      </trkpt>
      <trkpt lat="44.05134" lon="6.10213">
        <ele>525.01721191406</ele>
        <time>2013-12-07T10:06:22Z</time>
      </trkpt>
      <trkpt lat="44.05139" lon="6.10208">
        <ele>525.49780273438</ele>
        <time>2013-12-07T10:06:36Z</time>
      </trkpt>
      <trkpt lat="44.05142" lon="6.10203">
        <ele>525.49780273438</ele>
        <time>2013-12-07T10:06:41Z</time>
      </trkpt>
      <trkpt lat="44.05149" lon="6.10191">
        <ele>525.97839355469</ele>
        <time>2013-12-07T10:06:55Z</time>
      </trkpt>
      <trkpt lat="44.0515" lon="6.10189">
        <ele>525.97839355469</ele>
        <time>2013-12-07T10:06:57Z</time>
      </trkpt>
      <trkpt lat="44.05152" lon="6.10188">
        <ele>526.45910644531</ele>
        <time>2013-12-07T10:06:59Z</time>
      </trkpt>
      <trkpt lat="44.05159" lon="6.10175">
        <ele>526.93981933594</ele>
        <time>2013-12-07T10:07:12Z</time>
      </trkpt>
      <trkpt lat="44.05167" lon="6.10152">
        <ele>528.86254882812</ele>
        <time>2013-12-07T10:07:34Z</time>
      </trkpt>
      <trkpt lat="44.05179" lon="6.10134">
        <ele>530.30444335938</ele>
        <time>2013-12-07T10:07:54Z</time>
      </trkpt>
      <trkpt lat="44.05195" lon="6.10117">
        <ele>532.22705078125</ele>
        <time>2013-12-07T10:08:53Z</time>
      </trkpt>
      <trkpt lat="44.05204" lon="6.10115">
        <ele>533.6689453125</ele>
        <time>2013-12-07T10:09:08Z</time>
      </trkpt>
      <trkpt lat="44.05209" lon="6.10112">
        <ele>534.14965820312</ele>
        <time>2013-12-07T10:09:16Z</time>
      </trkpt>
      <trkpt lat="44.05218" lon="6.10109">
        <ele>534.63037109375</ele>
        <time>2013-12-07T10:09:33Z</time>
      </trkpt>
      <trkpt lat="44.0523" lon="6.10103">
        <ele>536.55310058594</ele>
        <time>2013-12-07T10:09:47Z</time>
      </trkpt>
      <trkpt lat="44.05244" lon="6.10087">
        <ele>537.99499511719</ele>
        <time>2013-12-07T10:10:03Z</time>
      </trkpt>
      <trkpt lat="44.05266" lon="6.10074">
        <ele>539.91760253906</ele>
        <time>2013-12-07T10:10:26Z</time>
      </trkpt>
      <trkpt lat="44.05283" lon="6.10064">
        <ele>540.87890625</ele>
        <time>2013-12-07T10:10:45Z</time>
      </trkpt>
      <trkpt lat="44.05296" lon="6.10053">
        <ele>542.32092285156</ele>
        <time>2013-12-07T10:11:01Z</time>
      </trkpt>
      <trkpt lat="44.05303" lon="6.10048">
        <ele>542.80151367188</ele>
        <time>2013-12-07T10:11:09Z</time>
      </trkpt>
      <trkpt lat="44.05325" lon="6.10033">
        <ele>544.24365234375</ele>
        <time>2013-12-07T10:11:31Z</time>
      </trkpt>
      <trkpt lat="44.05343" lon="6.10025">
        <ele>545.20483398438</ele>
        <time>2013-12-07T10:11:49Z</time>
      </trkpt>
      <trkpt lat="44.05353" lon="6.10014">
        <ele>545.685546875</ele>
        <time>2013-12-07T10:12:03Z</time>
      </trkpt>
      <trkpt lat="44.05369" lon="6.10003">
        <ele>547.60815429688</ele>
        <time>2013-12-07T10:12:21Z</time>
      </trkpt>
      <trkpt lat="44.05379" lon="6.09997">
        <ele>548.5693359375</ele>
        <time>2013-12-07T10:12:31Z</time>
      </trkpt>
      <trkpt lat="44.05394" lon="6.09985">
        <ele>549.53076171875</ele>
        <time>2013-12-07T10:12:48Z</time>
      </trkpt>
      <trkpt lat="44.05418" lon="6.0997">
        <ele>551.45336914062</ele>
        <time>2013-12-07T10:13:14Z</time>
      </trkpt>
      <trkpt lat="44.05442" lon="6.09954">
        <ele>553.3759765625</ele>
        <time>2013-12-07T10:13:41Z</time>
      </trkpt>
      <trkpt lat="44.05457" lon="6.09943">
        <ele>555.779296875</ele>
        <time>2013-12-07T10:13:55Z</time>
      </trkpt>
      <trkpt lat="44.0546" lon="6.09939">
        <ele>554.81787109375</ele>
        <time>2013-12-07T10:14:00Z</time>
      </trkpt>
      <trkpt lat="44.05463" lon="6.09936">
        <ele>555.29858398438</ele>
        <time>2013-12-07T10:14:04Z</time>
      </trkpt>
      <trkpt lat="44.05466" lon="6.09935">
        <ele>555.29858398438</ele>
        <time>2013-12-07T10:14:08Z</time>
      </trkpt>
      <trkpt lat="44.05471" lon="6.09932">
        <ele>555.779296875</ele>
        <time>2013-12-07T10:14:12Z</time>
      </trkpt>
      <trkpt lat="44.05474" lon="6.09928">
        <ele>555.779296875</ele>
        <time>2013-12-07T10:14:16Z</time>
      </trkpt>
      <trkpt lat="44.05477" lon="6.09927">
        <ele>555.779296875</ele>
        <time>2013-12-07T10:14:19Z</time>
      </trkpt>
      <trkpt lat="44.05494" lon="6.09911">
        <ele>557.22143554688</ele>
        <time>2013-12-07T10:14:36Z</time>
      </trkpt>
      <trkpt lat="44.05507" lon="6.09904">
        <ele>558.18286132812</ele>
        <time>2013-12-07T10:14:52Z</time>
      </trkpt>
      <trkpt lat="44.05514" lon="6.099">
        <ele>558.18286132812</ele>
        <time>2013-12-07T10:14:58Z</time>
      </trkpt>
      <trkpt lat="44.05539" lon="6.09884">
        <ele>561.06665039062</ele>
        <time>2013-12-07T10:15:21Z</time>
      </trkpt>
      <trkpt lat="44.05556" lon="6.0987">
        <ele>561.54736328125</ele>
        <time>2013-12-07T10:15:40Z</time>
      </trkpt>
      <trkpt lat="44.05569" lon="6.09861">
        <ele>562.9892578125</ele>
        <time>2013-12-07T10:15:56Z</time>
      </trkpt>
      <trkpt lat="44.0559" lon="6.09848">
        <ele>564.43115234375</ele>
        <time>2013-12-07T10:16:21Z</time>
      </trkpt>
      <trkpt lat="44.05605" lon="6.09837">
        <ele>565.392578125</ele>
        <time>2013-12-07T10:16:37Z</time>
      </trkpt>
      <trkpt lat="44.05627" lon="6.09821">
        <ele>566.83447265625</ele>
        <time>2013-12-07T10:17:00Z</time>
      </trkpt>
      <trkpt lat="44.05645" lon="6.09811">
        <ele>568.2763671875</ele>
        <time>2013-12-07T10:17:19Z</time>
      </trkpt>
      <trkpt lat="44.05665" lon="6.09796">
        <ele>569.71850585938</ele>
        <time>2013-12-07T10:17:41Z</time>
      </trkpt>
      <trkpt lat="44.05676" lon="6.09791">
        <ele>570.6796875</ele>
        <time>2013-12-07T10:17:52Z</time>
      </trkpt>
      <trkpt lat="44.05684" lon="6.09782">
        <ele>571.64086914062</ele>
        <time>2013-12-07T10:18:05Z</time>
      </trkpt>
      <trkpt lat="44.05707" lon="6.09768">
        <ele>573.08325195312</ele>
        <time>2013-12-07T10:18:28Z</time>
      </trkpt>
      <trkpt lat="44.05726" lon="6.09754">
        <ele>574.52514648438</ele>
        <time>2013-12-07T10:18:49Z</time>
      </trkpt>
      <trkpt lat="44.05732" lon="6.09747">
        <ele>574.04443359375</ele>
        <time>2013-12-07T10:19:07Z</time>
      </trkpt>
      <trkpt lat="44.05733" lon="6.09747">
        <ele>574.04443359375</ele>
        <time>2013-12-07T10:21:37Z</time>
      </trkpt>
      <trkpt lat="44.05733" lon="6.09746">
        <ele>575.005859375</ele>
        <time>2013-12-07T10:22:06Z</time>
      </trkpt>
      <trkpt lat="44.05735" lon="6.09752">
        <ele>575.005859375</ele>
        <time>2013-12-07T10:22:33Z</time>
      </trkpt>
      <trkpt lat="44.05735" lon="6.09752">
        <ele>575.486328125</ele>
        <time>2013-12-07T10:23:10Z</time>
      </trkpt>
      <trkpt lat="44.05742" lon="6.09748">
        <ele>575.96704101562</ele>
        <time>2013-12-07T10:23:18Z</time>
      </trkpt>
      <trkpt lat="44.05761" lon="6.0975">
        <ele>577.4091796875</ele>
        <time>2013-12-07T10:23:35Z</time>
      </trkpt>
      <trkpt lat="44.05766" lon="6.09754">
        <ele>577.8896484375</ele>
        <time>2013-12-07T10:23:56Z</time>
      </trkpt>
      <trkpt lat="44.05779" lon="6.09758">
        <ele>578.37036132812</ele>
        <time>2013-12-07T10:24:13Z</time>
      </trkpt>
      <trkpt lat="44.05782" lon="6.09757">
        <ele>578.37036132812</ele>
        <time>2013-12-07T10:24:26Z</time>
      </trkpt>
      <trkpt lat="44.0579" lon="6.09755">
        <ele>578.37036132812</ele>
        <time>2013-12-07T10:24:37Z</time>
      </trkpt>
      <trkpt lat="44.05796" lon="6.09753">
        <ele>578.85107421875</ele>
        <time>2013-12-07T10:24:49Z</time>
      </trkpt>
      <trkpt lat="44.05804" lon="6.0975">
        <ele>579.33154296875</ele>
        <time>2013-12-07T10:25:43Z</time>
      </trkpt>
      <trkpt lat="44.05809" lon="6.09764">
        <ele>578.85107421875</ele>
        <time>2013-12-07T10:26:01Z</time>
      </trkpt>
      <trkpt lat="44.05811" lon="6.09767">
        <ele>578.85107421875</ele>
        <time>2013-12-07T10:26:12Z</time>
      </trkpt>
      <trkpt lat="44.05813" lon="6.09775">
        <ele>578.85107421875</ele>
        <time>2013-12-07T10:26:30Z</time>
      </trkpt>
      <trkpt lat="44.05827" lon="6.09777">
        <ele>579.81225585938</ele>
        <time>2013-12-07T10:26:47Z</time>
      </trkpt>
      <trkpt lat="44.05828" lon="6.09771">
        <ele>578.85107421875</ele>
        <time>2013-12-07T10:26:52Z</time>
      </trkpt>
      <trkpt lat="44.0583" lon="6.09763">
        <ele>578.85107421875</ele>
        <time>2013-12-07T10:26:59Z</time>
      </trkpt>
      <trkpt lat="44.05834" lon="6.09734">
        <ele>580.29296875</ele>
        <time>2013-12-07T10:27:18Z</time>
      </trkpt>
      <trkpt lat="44.05834" lon="6.09729">
        <ele>580.29296875</ele>
        <time>2013-12-07T10:27:21Z</time>
      </trkpt>
      <trkpt lat="44.05834" lon="6.09719">
        <ele>580.29296875</ele>
        <time>2013-12-07T10:27:28Z</time>
      </trkpt>
      <trkpt lat="44.05833" lon="6.09703">
        <ele>581.25439453125</ele>
        <time>2013-12-07T10:27:42Z</time>
      </trkpt>
      <trkpt lat="44.05832" lon="6.09694">
        <ele>581.25439453125</ele>
        <time>2013-12-07T10:28:12Z</time>
      </trkpt>
      <trkpt lat="44.05827" lon="6.09662">
        <ele>581.25439453125</ele>
        <time>2013-12-07T10:28:31Z</time>
      </trkpt>
      <trkpt lat="44.05829" lon="6.09653">
        <ele>581.25439453125</ele>
        <time>2013-12-07T10:28:51Z</time>
      </trkpt>
      <trkpt lat="44.05832" lon="6.09638">
        <ele>581.25439453125</ele>
        <time>2013-12-07T10:29:03Z</time>
      </trkpt>
      <trkpt lat="44.05836" lon="6.09629">
        <ele>581.25439453125</ele>
        <time>2013-12-07T10:29:11Z</time>
      </trkpt>
      <trkpt lat="44.05837" lon="6.09621">
        <ele>581.25439453125</ele>
        <time>2013-12-07T10:29:16Z</time>
      </trkpt>
      <trkpt lat="44.05844" lon="6.09597">
        <ele>581.73486328125</ele>
        <time>2013-12-07T10:29:35Z</time>
      </trkpt>
      <trkpt lat="44.0585" lon="6.09577">
        <ele>582.6962890625</ele>
        <time>2013-12-07T10:29:50Z</time>
      </trkpt>
      <trkpt lat="44.05856" lon="6.09552">
        <ele>583.1767578125</ele>
        <time>2013-12-07T10:30:06Z</time>
      </trkpt>
      <trkpt lat="44.05861" lon="6.09529">
        <ele>584.61889648438</ele>
        <time>2013-12-07T10:30:22Z</time>
      </trkpt>
      <trkpt lat="44.05868" lon="6.09502">
        <ele>587.02197265625</ele>
        <time>2013-12-07T10:30:41Z</time>
      </trkpt>
      <trkpt lat="44.05875" lon="6.09477">
        <ele>588.94506835938</ele>
        <time>2013-12-07T10:30:59Z</time>
      </trkpt>
      <trkpt lat="44.05883" lon="6.09449">
        <ele>591.82885742188</ele>
        <time>2013-12-07T10:31:22Z</time>
      </trkpt>
      <trkpt lat="44.05888" lon="6.09415">
        <ele>594.23217773438</ele>
        <time>2013-12-07T10:31:46Z</time>
      </trkpt>
      <trkpt lat="44.05893" lon="6.0941">
        <ele>595.193359375</ele>
        <time>2013-12-07T10:31:52Z</time>
      </trkpt>
      <trkpt lat="44.05906" lon="6.09386">
        <ele>597.11596679688</ele>
        <time>2013-12-07T10:32:13Z</time>
      </trkpt>
      <trkpt lat="44.05913" lon="6.09374">
        <ele>597.5966796875</ele>
        <time>2013-12-07T10:32:24Z</time>
      </trkpt>
      <trkpt lat="44.05922" lon="6.09354">
        <ele>599.03857421875</ele>
        <time>2013-12-07T10:32:44Z</time>
      </trkpt>
      <trkpt lat="44.05931" lon="6.0933">
        <ele>600</ele>
        <time>2013-12-07T10:33:03Z</time>
      </trkpt>
      <trkpt lat="44.05936" lon="6.09318">
        <ele>600.48071289062</ele>
        <time>2013-12-07T10:33:18Z</time>
      </trkpt>
      <trkpt lat="44.05941" lon="6.09313">
        <ele>600.48071289062</ele>
        <time>2013-12-07T10:33:42Z</time>
      </trkpt>
      <trkpt lat="44.05941" lon="6.09312">
        <ele>600.48071289062</ele>
        <time>2013-12-07T10:34:05Z</time>
      </trkpt>
      <trkpt lat="44.05944" lon="6.09305">
        <ele>600</ele>
        <time>2013-12-07T10:34:18Z</time>
      </trkpt>
      <trkpt lat="44.05944" lon="6.09305">
        <ele>600.48071289062</ele>
        <time>2013-12-07T10:35:36Z</time>
      </trkpt>
      <trkpt lat="44.05945" lon="6.09293">
        <ele>600.48071289062</ele>
        <time>2013-12-07T10:36:55Z</time>
      </trkpt>
      <trkpt lat="44.05948" lon="6.09287">
        <ele>600.48071289062</ele>
        <time>2013-12-07T10:37:00Z</time>
      </trkpt>
      <trkpt lat="44.05949" lon="6.09277">
        <ele>600.48071289062</ele>
        <time>2013-12-07T10:37:06Z</time>
      </trkpt>
      <trkpt lat="44.05956" lon="6.09254">
        <ele>601.44189453125</ele>
        <time>2013-12-07T10:37:21Z</time>
      </trkpt>
      <trkpt lat="44.05962" lon="6.09233">
        <ele>602.40307617188</ele>
        <time>2013-12-07T10:37:36Z</time>
      </trkpt>
      <trkpt lat="44.05962" lon="6.09204">
        <ele>603.84521484375</ele>
        <time>2013-12-07T10:37:54Z</time>
      </trkpt>
      <trkpt lat="44.05961" lon="6.09195">
        <ele>605.28735351562</ele>
        <time>2013-12-07T10:38:00Z</time>
      </trkpt>
      <trkpt lat="44.05956" lon="6.09182">
        <ele>606.24853515625</ele>
        <time>2013-12-07T10:38:10Z</time>
      </trkpt>
      <trkpt lat="44.05944" lon="6.09177">
        <ele>608.17138671875</ele>
        <time>2013-12-07T10:38:21Z</time>
      </trkpt>
      <trkpt lat="44.05932" lon="6.09183">
        <ele>610.57446289062</ele>
        <time>2013-12-07T10:38:35Z</time>
      </trkpt>
      <trkpt lat="44.05918" lon="6.09186">
        <ele>613.45849609375</ele>
        <time>2013-12-07T10:38:47Z</time>
      </trkpt>
      <trkpt lat="44.0591" lon="6.09186">
        <ele>614.900390625</ele>
        <time>2013-12-07T10:38:56Z</time>
      </trkpt>
      <trkpt lat="44.05896" lon="6.09181">
        <ele>616.82299804688</ele>
        <time>2013-12-07T10:39:11Z</time>
      </trkpt>
      <trkpt lat="44.05894" lon="6.09176">
        <ele>617.7841796875</ele>
        <time>2013-12-07T10:39:17Z</time>
      </trkpt>
      <trkpt lat="44.05892" lon="6.09172">
        <ele>617.7841796875</ele>
        <time>2013-12-07T10:39:20Z</time>
      </trkpt>
      <trkpt lat="44.05887" lon="6.0915">
        <ele>618.26489257812</ele>
        <time>2013-12-07T10:39:38Z</time>
      </trkpt>
      <trkpt lat="44.05889" lon="6.09139">
        <ele>620.18774414062</ele>
        <time>2013-12-07T10:39:48Z</time>
      </trkpt>
      <trkpt lat="44.05894" lon="6.09129">
        <ele>622.1103515625</ele>
        <time>2013-12-07T10:40:02Z</time>
      </trkpt>
      <trkpt lat="44.05895" lon="6.09116">
        <ele>623.55249023438</ele>
        <time>2013-12-07T10:40:12Z</time>
      </trkpt>
      <trkpt lat="44.05897" lon="6.09106">
        <ele>624.99438476562</ele>
        <time>2013-12-07T10:40:24Z</time>
      </trkpt>
      <trkpt lat="44.05899" lon="6.09093">
        <ele>626.43627929688</ele>
        <time>2013-12-07T10:40:36Z</time>
      </trkpt>
      <trkpt lat="44.05902" lon="6.09088">
        <ele>626.9169921875</ele>
        <time>2013-12-07T10:40:43Z</time>
      </trkpt>
      <trkpt lat="44.05906" lon="6.09071">
        <ele>628.35888671875</ele>
        <time>2013-12-07T10:40:56Z</time>
      </trkpt>
      <trkpt lat="44.0591" lon="6.09051">
        <ele>630.28149414062</ele>
        <time>2013-12-07T10:41:12Z</time>
      </trkpt>
      <trkpt lat="44.05915" lon="6.09041">
        <ele>631.72338867188</ele>
        <time>2013-12-07T10:41:26Z</time>
      </trkpt>
      <trkpt lat="44.0592" lon="6.0902">
        <ele>633.16528320312</ele>
        <time>2013-12-07T10:41:42Z</time>
      </trkpt>
      <trkpt lat="44.05923" lon="6.09006">
        <ele>634.607421875</ele>
        <time>2013-12-07T10:41:53Z</time>
      </trkpt>
      <trkpt lat="44.05924" lon="6.0899">
        <ele>637.49145507812</ele>
        <time>2013-12-07T10:42:07Z</time>
      </trkpt>
      <trkpt lat="44.05922" lon="6.08985">
        <ele>637.49145507812</ele>
        <time>2013-12-07T10:42:22Z</time>
      </trkpt>
      <trkpt lat="44.05915" lon="6.08963">
        <ele>638.45288085938</ele>
        <time>2013-12-07T10:42:40Z</time>
      </trkpt>
      <trkpt lat="44.05905" lon="6.08941">
        <ele>639.89477539062</ele>
        <time>2013-12-07T10:42:58Z</time>
      </trkpt>
      <trkpt lat="44.05894" lon="6.0893">
        <ele>640.85595703125</ele>
        <time>2013-12-07T10:43:13Z</time>
      </trkpt>
      <trkpt lat="44.05886" lon="6.08922">
        <ele>640.85595703125</ele>
        <time>2013-12-07T10:43:24Z</time>
      </trkpt>
      <trkpt lat="44.05875" lon="6.0891">
        <ele>641.8173828125</ele>
        <time>2013-12-07T10:43:40Z</time>
      </trkpt>
      <trkpt lat="44.05862" lon="6.089">
        <ele>641.8173828125</ele>
        <time>2013-12-07T10:43:56Z</time>
      </trkpt>
      <trkpt lat="44.05837" lon="6.08884">
        <ele>642.29809570312</ele>
        <time>2013-12-07T10:44:20Z</time>
      </trkpt>
      <trkpt lat="44.0582" lon="6.08871">
        <ele>643.25927734375</ele>
        <time>2013-12-07T10:44:40Z</time>
      </trkpt>
      <trkpt lat="44.05805" lon="6.08854">
        <ele>644.701171875</ele>
        <time>2013-12-07T10:45:01Z</time>
      </trkpt>
      <trkpt lat="44.05793" lon="6.08838">
        <ele>645.66259765625</ele>
        <time>2013-12-07T10:45:19Z</time>
      </trkpt>
      <trkpt lat="44.05782" lon="6.08822">
        <ele>647.1044921875</ele>
        <time>2013-12-07T10:45:37Z</time>
      </trkpt>
      <trkpt lat="44.05775" lon="6.0881">
        <ele>648.06591796875</ele>
        <time>2013-12-07T10:45:49Z</time>
      </trkpt>
      <trkpt lat="44.05771" lon="6.08795">
        <ele>649.5078125</ele>
        <time>2013-12-07T10:46:02Z</time>
      </trkpt>
      <trkpt lat="44.05763" lon="6.08782">
        <ele>651.9111328125</ele>
        <time>2013-12-07T10:46:20Z</time>
      </trkpt>
      <trkpt lat="44.05762" lon="6.08774">
        <ele>652.87255859375</ele>
        <time>2013-12-07T10:46:39Z</time>
      </trkpt>
      <trkpt lat="44.05776" lon="6.08775">
        <ele>654.79516601562</ele>
        <time>2013-12-07T10:46:57Z</time>
      </trkpt>
      <trkpt lat="44.05781" lon="6.08772">
        <ele>655.27587890625</ele>
        <time>2013-12-07T10:47:13Z</time>
      </trkpt>
      <trkpt lat="44.05788" lon="6.08766">
        <ele>656.23706054688</ele>
        <time>2013-12-07T10:47:23Z</time>
      </trkpt>
      <trkpt lat="44.05792" lon="6.08761">
        <ele>656.7177734375</ele>
        <time>2013-12-07T10:47:29Z</time>
      </trkpt>
      <trkpt lat="44.058" lon="6.08745">
        <ele>659.12109375</ele>
        <time>2013-12-07T10:47:45Z</time>
      </trkpt>
      <trkpt lat="44.0581" lon="6.08737">
        <ele>661.5244140625</ele>
        <time>2013-12-07T10:48:02Z</time>
      </trkpt>
      <trkpt lat="44.05812" lon="6.0874">
        <ele>662.48559570312</ele>
        <time>2013-12-07T10:48:07Z</time>
      </trkpt>
      <trkpt lat="44.05818" lon="6.08743">
        <ele>663.44702148438</ele>
        <time>2013-12-07T10:48:22Z</time>
      </trkpt>
      <trkpt lat="44.0582" lon="6.08749">
        <ele>663.44702148438</ele>
        <time>2013-12-07T10:48:33Z</time>
      </trkpt>
      <trkpt lat="44.0582" lon="6.08748">
        <ele>662.96630859375</ele>
        <time>2013-12-07T10:48:49Z</time>
      </trkpt>
      <trkpt lat="44.0582" lon="6.08748">
        <ele>662.96630859375</ele>
        <time>2013-12-07T10:49:15Z</time>
      </trkpt>
      <trkpt lat="44.0582" lon="6.08748">
        <ele>662.96630859375</ele>
        <time>2013-12-07T10:52:19Z</time>
      </trkpt>
      <trkpt lat="44.05825" lon="6.08758">
        <ele>663.92749023438</ele>
        <time>2013-12-07T10:52:32Z</time>
      </trkpt>
      <trkpt lat="44.05823" lon="6.08768">
        <ele>662.96630859375</ele>
        <time>2013-12-07T10:52:43Z</time>
      </trkpt>
      <trkpt lat="44.05827" lon="6.08778">
        <ele>662.48559570312</ele>
        <time>2013-12-07T10:52:55Z</time>
      </trkpt>
      <trkpt lat="44.05832" lon="6.0878">
        <ele>662.48559570312</ele>
        <time>2013-12-07T10:53:00Z</time>
      </trkpt>
      <trkpt lat="44.05837" lon="6.08778">
        <ele>662.48559570312</ele>
        <time>2013-12-07T10:53:15Z</time>
      </trkpt>
      <trkpt lat="44.05841" lon="6.08765">
        <ele>663.44702148438</ele>
        <time>2013-12-07T10:53:30Z</time>
      </trkpt>
      <trkpt lat="44.0584" lon="6.08761">
        <ele>662.96630859375</ele>
        <time>2013-12-07T10:53:58Z</time>
      </trkpt>
      <trkpt lat="44.05841" lon="6.08757">
        <ele>663.44702148438</ele>
        <time>2013-12-07T10:54:11Z</time>
      </trkpt>
      <trkpt lat="44.05835" lon="6.08741">
        <ele>663.92749023438</ele>
        <time>2013-12-07T10:54:26Z</time>
      </trkpt>
      <trkpt lat="44.05836" lon="6.08732">
        <ele>663.92749023438</ele>
        <time>2013-12-07T10:54:37Z</time>
      </trkpt>
      <trkpt lat="44.05826" lon="6.08726">
        <ele>663.44702148438</ele>
        <time>2013-12-07T10:54:49Z</time>
      </trkpt>
      <trkpt lat="44.05824" lon="6.08725">
        <ele>662.96630859375</ele>
        <time>2013-12-07T10:54:51Z</time>
      </trkpt>
      <trkpt lat="44.05818" lon="6.08737">
        <ele>662.48559570312</ele>
        <time>2013-12-07T10:55:06Z</time>
      </trkpt>
      <trkpt lat="44.05818" lon="6.08737">
        <ele>662.96630859375</ele>
        <time>2013-12-07T10:55:45Z</time>
      </trkpt>
      <trkpt lat="44.05816" lon="6.08739">
        <ele>662.48559570312</ele>
        <time>2013-12-07T10:56:26Z</time>
      </trkpt>
      <trkpt lat="44.05817" lon="6.08736">
        <ele>662.48559570312</ele>
        <time>2013-12-07T10:57:41Z</time>
      </trkpt>
      <trkpt lat="44.05817" lon="6.08733">
        <ele>661.5244140625</ele>
        <time>2013-12-07T10:58:33Z</time>
      </trkpt>
      <trkpt lat="44.0582" lon="6.08716">
        <ele>661.04370117188</ele>
        <time>2013-12-07T10:58:44Z</time>
      </trkpt>
      <trkpt lat="44.05818" lon="6.08718">
        <ele>661.04370117188</ele>
        <time>2013-12-07T10:58:47Z</time>
      </trkpt>
      <trkpt lat="44.05815" lon="6.08723">
        <ele>660.56298828125</ele>
        <time>2013-12-07T10:58:51Z</time>
      </trkpt>
      <trkpt lat="44.05806" lon="6.08743">
        <ele>658.15991210938</ele>
        <time>2013-12-07T10:59:09Z</time>
      </trkpt>
      <trkpt lat="44.05798" lon="6.08752">
        <ele>656.7177734375</ele>
        <time>2013-12-07T10:59:19Z</time>
      </trkpt>
      <trkpt lat="44.0579" lon="6.08767">
        <ele>654.31469726562</ele>
        <time>2013-12-07T10:59:31Z</time>
      </trkpt>
      <trkpt lat="44.05781" lon="6.08777">
        <ele>652.87255859375</ele>
        <time>2013-12-07T10:59:42Z</time>
      </trkpt>
      <trkpt lat="44.05776" lon="6.08779">
        <ele>652.39184570312</ele>
        <time>2013-12-07T10:59:46Z</time>
      </trkpt>
      <trkpt lat="44.05761" lon="6.08775">
        <ele>649.98852539062</ele>
        <time>2013-12-07T11:00:01Z</time>
      </trkpt>
      <trkpt lat="44.05759" lon="6.08774">
        <ele>649.98852539062</ele>
        <time>2013-12-07T11:00:03Z</time>
      </trkpt>
      <trkpt lat="44.05754" lon="6.08757">
        <ele>648.54638671875</ele>
        <time>2013-12-07T11:00:16Z</time>
      </trkpt>
      <trkpt lat="44.05753" lon="6.08735">
        <ele>648.06591796875</ele>
        <time>2013-12-07T11:00:30Z</time>
      </trkpt>
      <trkpt lat="44.05754" lon="6.08714">
        <ele>647.1044921875</ele>
        <time>2013-12-07T11:00:49Z</time>
      </trkpt>
      <trkpt lat="44.05755" lon="6.08695">
        <ele>647.1044921875</ele>
        <time>2013-12-07T11:01:20Z</time>
      </trkpt>
      <trkpt lat="44.05757" lon="6.08686">
        <ele>647.1044921875</ele>
        <time>2013-12-07T11:01:26Z</time>
      </trkpt>
      <trkpt lat="44.0576" lon="6.08669">
        <ele>648.06591796875</ele>
        <time>2013-12-07T11:01:40Z</time>
      </trkpt>
      <trkpt lat="44.0576" lon="6.08665">
        <ele>647.58520507812</ele>
        <time>2013-12-07T11:01:43Z</time>
      </trkpt>
      <trkpt lat="44.05761" lon="6.08657">
        <ele>647.1044921875</ele>
        <time>2013-12-07T11:01:48Z</time>
      </trkpt>
      <trkpt lat="44.05767" lon="6.08626">
        <ele>646.6240234375</ele>
        <time>2013-12-07T11:02:08Z</time>
      </trkpt>
      <trkpt lat="44.05769" lon="6.08622">
        <ele>646.6240234375</ele>
        <time>2013-12-07T11:02:11Z</time>
      </trkpt>
      <trkpt lat="44.05771" lon="6.08617">
        <ele>646.6240234375</ele>
        <time>2013-12-07T11:02:15Z</time>
      </trkpt>
      <trkpt lat="44.0578" lon="6.08585">
        <ele>646.6240234375</ele>
        <time>2013-12-07T11:02:35Z</time>
      </trkpt>
      <trkpt lat="44.05784" lon="6.08565">
        <ele>646.6240234375</ele>
        <time>2013-12-07T11:02:47Z</time>
      </trkpt>
      <trkpt lat="44.05786" lon="6.08539">
        <ele>646.14331054688</ele>
        <time>2013-12-07T11:03:03Z</time>
      </trkpt>
      <trkpt lat="44.05788" lon="6.08526">
        <ele>646.14331054688</ele>
        <time>2013-12-07T11:03:11Z</time>
      </trkpt>
      <trkpt lat="44.05793" lon="6.08503">
        <ele>646.14331054688</ele>
        <time>2013-12-07T11:03:26Z</time>
      </trkpt>
      <trkpt lat="44.058" lon="6.08475">
        <ele>647.1044921875</ele>
        <time>2013-12-07T11:03:45Z</time>
      </trkpt>
      <trkpt lat="44.05807" lon="6.08446">
        <ele>646.6240234375</ele>
        <time>2013-12-07T11:04:04Z</time>
      </trkpt>
      <trkpt lat="44.05814" lon="6.08419">
        <ele>646.14331054688</ele>
        <time>2013-12-07T11:04:21Z</time>
      </trkpt>
      <trkpt lat="44.05818" lon="6.08408">
        <ele>646.14331054688</ele>
        <time>2013-12-07T11:04:29Z</time>
      </trkpt>
      <trkpt lat="44.05826" lon="6.08384">
        <ele>645.18188476562</ele>
        <time>2013-12-07T11:04:45Z</time>
      </trkpt>
      <trkpt lat="44.05833" lon="6.08359">
        <ele>644.701171875</ele>
        <time>2013-12-07T11:05:00Z</time>
      </trkpt>
      <trkpt lat="44.05842" lon="6.08331">
        <ele>644.701171875</ele>
        <time>2013-12-07T11:05:16Z</time>
      </trkpt>
      <trkpt lat="44.05846" lon="6.08326">
        <ele>644.220703125</ele>
        <time>2013-12-07T11:05:22Z</time>
      </trkpt>
      <trkpt lat="44.05847" lon="6.08321">
        <ele>643.73999023438</ele>
        <time>2013-12-07T11:05:26Z</time>
      </trkpt>
      <trkpt lat="44.05846" lon="6.08319">
        <ele>643.73999023438</ele>
        <time>2013-12-07T11:05:28Z</time>
      </trkpt>
      <trkpt lat="44.05844" lon="6.08294">
        <ele>641.8173828125</ele>
        <time>2013-12-07T11:05:46Z</time>
      </trkpt>
      <trkpt lat="44.05845" lon="6.08283">
        <ele>640.85595703125</ele>
        <time>2013-12-07T11:05:58Z</time>
      </trkpt>
      <trkpt lat="44.05845" lon="6.08283">
        <ele>640.37548828125</ele>
        <time>2013-12-07T11:06:54Z</time>
      </trkpt>
      <trkpt lat="44.05845" lon="6.08282">
        <ele>640.37548828125</ele>
        <time>2013-12-07T11:06:58Z</time>
      </trkpt>
      <trkpt lat="44.05844" lon="6.08272">
        <ele>639.4140625</ele>
        <time>2013-12-07T11:07:05Z</time>
      </trkpt>
      <trkpt lat="44.05829" lon="6.08242">
        <ele>637.0107421875</ele>
        <time>2013-12-07T11:07:27Z</time>
      </trkpt>
      <trkpt lat="44.05828" lon="6.08239">
        <ele>636.5302734375</ele>
        <time>2013-12-07T11:07:29Z</time>
      </trkpt>
      <trkpt lat="44.05825" lon="6.08235">
        <ele>635.56860351562</ele>
        <time>2013-12-07T11:07:34Z</time>
      </trkpt>
      <trkpt lat="44.05814" lon="6.08215">
        <ele>633.16528320312</ele>
        <time>2013-12-07T11:07:50Z</time>
      </trkpt>
      <trkpt lat="44.05799" lon="6.08202">
        <ele>632.68481445312</ele>
        <time>2013-12-07T11:08:07Z</time>
      </trkpt>
      <trkpt lat="44.0579" lon="6.08197">
        <ele>632.68481445312</ele>
        <time>2013-12-07T11:08:19Z</time>
      </trkpt>
      <trkpt lat="44.05786" lon="6.08193">
        <ele>632.68481445312</ele>
        <time>2013-12-07T11:08:23Z</time>
      </trkpt>
      <trkpt lat="44.0578" lon="6.0819">
        <ele>632.68481445312</ele>
        <time>2013-12-07T11:08:31Z</time>
      </trkpt>
      <trkpt lat="44.05765" lon="6.0818">
        <ele>633.16528320312</ele>
        <time>2013-12-07T11:08:45Z</time>
      </trkpt>
      <trkpt lat="44.05754" lon="6.0817">
        <ele>634.12670898438</ele>
        <time>2013-12-07T11:08:59Z</time>
      </trkpt>
      <trkpt lat="44.05742" lon="6.08163">
        <ele>635.08813476562</ele>
        <time>2013-12-07T11:09:09Z</time>
      </trkpt>
      <trkpt lat="44.05729" lon="6.08155">
        <ele>636.5302734375</ele>
        <time>2013-12-07T11:09:23Z</time>
      </trkpt>
      <trkpt lat="44.05718" lon="6.08146">
        <ele>639.4140625</ele>
        <time>2013-12-07T11:09:38Z</time>
      </trkpt>
      <trkpt lat="44.05717" lon="6.08146">
        <ele>639.4140625</ele>
        <time>2013-12-07T11:09:40Z</time>
      </trkpt>
      <trkpt lat="44.05709" lon="6.08143">
        <ele>641.33666992188</ele>
        <time>2013-12-07T11:09:53Z</time>
      </trkpt>
      <trkpt lat="44.05709" lon="6.0814">
        <ele>641.33666992188</ele>
        <time>2013-12-07T11:10:13Z</time>
      </trkpt>
      <trkpt lat="44.05711" lon="6.08134">
        <ele>641.33666992188</ele>
        <time>2013-12-07T11:10:18Z</time>
      </trkpt>
      <trkpt lat="44.05716" lon="6.08122">
        <ele>641.33666992188</ele>
        <time>2013-12-07T11:10:27Z</time>
      </trkpt>
      <trkpt lat="44.05723" lon="6.08109">
        <ele>641.8173828125</ele>
        <time>2013-12-07T11:10:38Z</time>
      </trkpt>
      <trkpt lat="44.05726" lon="6.081">
        <ele>642.29809570312</ele>
        <time>2013-12-07T11:10:46Z</time>
      </trkpt>
      <trkpt lat="44.05728" lon="6.08099">
        <ele>642.77880859375</ele>
        <time>2013-12-07T11:10:48Z</time>
      </trkpt>
      <trkpt lat="44.05735" lon="6.0808">
        <ele>643.73999023438</ele>
        <time>2013-12-07T11:11:02Z</time>
      </trkpt>
      <trkpt lat="44.05742" lon="6.08069">
        <ele>644.701171875</ele>
        <time>2013-12-07T11:11:13Z</time>
      </trkpt>
      <trkpt lat="44.05744" lon="6.08067">
        <ele>644.701171875</ele>
        <time>2013-12-07T11:11:15Z</time>
      </trkpt>
      <trkpt lat="44.0575" lon="6.08051">
        <ele>646.14331054688</ele>
        <time>2013-12-07T11:11:29Z</time>
      </trkpt>
      <trkpt lat="44.05754" lon="6.08038">
        <ele>646.6240234375</ele>
        <time>2013-12-07T11:11:40Z</time>
      </trkpt>
      <trkpt lat="44.05761" lon="6.08023">
        <ele>648.54638671875</ele>
        <time>2013-12-07T11:11:56Z</time>
      </trkpt>
      <trkpt lat="44.0576" lon="6.08023">
        <ele>649.02709960938</ele>
        <time>2013-12-07T11:11:59Z</time>
      </trkpt>
      <trkpt lat="44.05757" lon="6.08026">
        <ele>649.02709960938</ele>
        <time>2013-12-07T11:12:05Z</time>
      </trkpt>
      <trkpt lat="44.05742" lon="6.08039">
        <ele>650.46923828125</ele>
        <time>2013-12-07T11:12:24Z</time>
      </trkpt>
      <trkpt lat="44.05735" lon="6.08049">
        <ele>650.94970703125</ele>
        <time>2013-12-07T11:12:34Z</time>
      </trkpt>
      <trkpt lat="44.05726" lon="6.08051">
        <ele>651.43041992188</ele>
        <time>2013-12-07T11:12:46Z</time>
      </trkpt>
      <trkpt lat="44.05718" lon="6.08055">
        <ele>653.833984375</ele>
        <time>2013-12-07T11:12:59Z</time>
      </trkpt>
      <trkpt lat="44.05711" lon="6.0806">
        <ele>655.27587890625</ele>
        <time>2013-12-07T11:13:11Z</time>
      </trkpt>
      <trkpt lat="44.05696" lon="6.08063">
        <ele>657.19848632812</ele>
        <time>2013-12-07T11:13:30Z</time>
      </trkpt>
      <trkpt lat="44.05686" lon="6.08061">
        <ele>659.12109375</ele>
        <time>2013-12-07T11:13:45Z</time>
      </trkpt>
      <trkpt lat="44.05677" lon="6.08063">
        <ele>661.5244140625</ele>
        <time>2013-12-07T11:13:58Z</time>
      </trkpt>
      <trkpt lat="44.05664" lon="6.08064">
        <ele>663.92749023438</ele>
        <time>2013-12-07T11:14:15Z</time>
      </trkpt>
      <trkpt lat="44.05653" lon="6.08065">
        <ele>665.85034179688</ele>
        <time>2013-12-07T11:14:30Z</time>
      </trkpt>
      <trkpt lat="44.05645" lon="6.08067">
        <ele>668.25366210938</ele>
        <time>2013-12-07T11:14:42Z</time>
      </trkpt>
      <trkpt lat="44.05639" lon="6.08069">
        <ele>669.21508789062</ele>
        <time>2013-12-07T11:15:01Z</time>
      </trkpt>
      <trkpt lat="44.05627" lon="6.08072">
        <ele>670.65698242188</ele>
        <time>2013-12-07T11:15:27Z</time>
      </trkpt>
      <trkpt lat="44.05612" lon="6.08067">
        <ele>673.06030273438</ele>
        <time>2013-12-07T11:15:45Z</time>
      </trkpt>
      <trkpt lat="44.05598" lon="6.08062">
        <ele>675.94409179688</ele>
        <time>2013-12-07T11:16:03Z</time>
      </trkpt>
      <trkpt lat="44.05587" lon="6.08056">
        <ele>678.34741210938</ele>
        <time>2013-12-07T11:16:19Z</time>
      </trkpt>
      <trkpt lat="44.05581" lon="6.08051">
        <ele>680.27001953125</ele>
        <time>2013-12-07T11:16:30Z</time>
      </trkpt>
      <trkpt lat="44.05573" lon="6.08046">
        <ele>682.19262695312</ele>
        <time>2013-12-07T11:16:45Z</time>
      </trkpt>
      <trkpt lat="44.05568" lon="6.08043">
        <ele>684.59619140625</ele>
        <time>2013-12-07T11:16:56Z</time>
      </trkpt>
      <trkpt lat="44.0556" lon="6.08033">
        <ele>686.99926757812</ele>
        <time>2013-12-07T11:17:12Z</time>
      </trkpt>
      <trkpt lat="44.05554" lon="6.08025">
        <ele>687.96069335938</ele>
        <time>2013-12-07T11:17:24Z</time>
      </trkpt>
      <trkpt lat="44.05548" lon="6.08023">
        <ele>689.40258789062</ele>
        <time>2013-12-07T11:17:41Z</time>
      </trkpt>
      <trkpt lat="44.05538" lon="6.08016">
        <ele>692.28662109375</ele>
        <time>2013-12-07T11:17:57Z</time>
      </trkpt>
      <trkpt lat="44.05529" lon="6.08005">
        <ele>694.68969726562</ele>
        <time>2013-12-07T11:18:13Z</time>
      </trkpt>
      <trkpt lat="44.05524" lon="6.07999">
        <ele>696.1318359375</ele>
        <time>2013-12-07T11:18:24Z</time>
      </trkpt>
      <trkpt lat="44.05516" lon="6.07992">
        <ele>698.05444335938</ele>
        <time>2013-12-07T11:18:37Z</time>
      </trkpt>
      <trkpt lat="44.0551" lon="6.07984">
        <ele>700.9384765625</ele>
        <time>2013-12-07T11:18:50Z</time>
      </trkpt>
      <trkpt lat="44.05508" lon="6.07979">
        <ele>703.341796875</ele>
        <time>2013-12-07T11:19:02Z</time>
      </trkpt>
      <trkpt lat="44.05506" lon="6.07967">
        <ele>705.7451171875</ele>
        <time>2013-12-07T11:19:16Z</time>
      </trkpt>
      <trkpt lat="44.05501" lon="6.07956">
        <ele>708.1484375</ele>
        <time>2013-12-07T11:19:32Z</time>
      </trkpt>
      <trkpt lat="44.05496" lon="6.0795">
        <ele>710.07080078125</ele>
        <time>2013-12-07T11:19:43Z</time>
      </trkpt>
      <trkpt lat="44.05493" lon="6.07943">
        <ele>712.47412109375</ele>
        <time>2013-12-07T11:19:56Z</time>
      </trkpt>
      <trkpt lat="44.05485" lon="6.07926">
        <ele>714.39672851562</ele>
        <time>2013-12-07T11:20:15Z</time>
      </trkpt>
      <trkpt lat="44.05481" lon="6.07914">
        <ele>715.8388671875</ele>
        <time>2013-12-07T11:20:36Z</time>
      </trkpt>
      <trkpt lat="44.05473" lon="6.07916">
        <ele>717.76147460938</ele>
        <time>2013-12-07T11:21:01Z</time>
      </trkpt>
      <trkpt lat="44.05458" lon="6.07924">
        <ele>719.68432617188</ele>
        <time>2013-12-07T11:21:21Z</time>
      </trkpt>
      <trkpt lat="44.05445" lon="6.07934">
        <ele>722.08740234375</ele>
        <time>2013-12-07T11:21:40Z</time>
      </trkpt>
      <trkpt lat="44.05432" lon="6.07944">
        <ele>724.49072265625</ele>
        <time>2013-12-07T11:21:57Z</time>
      </trkpt>
      <trkpt lat="44.05421" lon="6.07952">
        <ele>726.89404296875</ele>
        <time>2013-12-07T11:22:16Z</time>
      </trkpt>
      <trkpt lat="44.05414" lon="6.07958">
        <ele>728.81665039062</ele>
        <time>2013-12-07T11:22:28Z</time>
      </trkpt>
      <trkpt lat="44.054" lon="6.0797">
        <ele>732.18139648438</ele>
        <time>2013-12-07T11:22:50Z</time>
      </trkpt>
      <trkpt lat="44.05403" lon="6.07967">
        <ele>732.18139648438</ele>
        <time>2013-12-07T11:23:16Z</time>
      </trkpt>
      <trkpt lat="44.05392" lon="6.07973">
        <ele>734.10400390625</ele>
        <time>2013-12-07T11:23:47Z</time>
      </trkpt>
      <trkpt lat="44.05376" lon="6.07984">
        <ele>737.46850585938</ele>
        <time>2013-12-07T11:24:09Z</time>
      </trkpt>
      <trkpt lat="44.0536" lon="6.07988">
        <ele>738.42993164062</ele>
        <time>2013-12-07T11:24:31Z</time>
      </trkpt>
      <trkpt lat="44.05339" lon="6.07997">
        <ele>738.91064453125</ele>
        <time>2013-12-07T11:24:53Z</time>
      </trkpt>
      <trkpt lat="44.0532" lon="6.08005">
        <ele>741.31372070312</ele>
        <time>2013-12-07T11:25:18Z</time>
      </trkpt>
      <trkpt lat="44.05309" lon="6.08005">
        <ele>743.71704101562</ele>
        <time>2013-12-07T11:25:34Z</time>
      </trkpt>
      <trkpt lat="44.053" lon="6.08006">
        <ele>745.6396484375</ele>
        <time>2013-12-07T11:25:44Z</time>
      </trkpt>
      <trkpt lat="44.05291" lon="6.08003">
        <ele>748.04321289062</ele>
        <time>2013-12-07T11:25:59Z</time>
      </trkpt>
      <trkpt lat="44.05288" lon="6.08003">
        <ele>748.04321289062</ele>
        <time>2013-12-07T11:26:17Z</time>
      </trkpt>
      <trkpt lat="44.05288" lon="6.08003">
        <ele>748.04321289062</ele>
        <time>2013-12-07T11:27:58Z</time>
      </trkpt>
      <trkpt lat="44.05279" lon="6.08016">
        <ele>748.52368164062</ele>
        <time>2013-12-07T11:29:16Z</time>
      </trkpt>
      <trkpt lat="44.05273" lon="6.08032">
        <ele>748.52368164062</ele>
        <time>2013-12-07T11:29:29Z</time>
      </trkpt>
      <trkpt lat="44.05264" lon="6.08052">
        <ele>750.44653320312</ele>
        <time>2013-12-07T11:29:47Z</time>
      </trkpt>
      <trkpt lat="44.05253" lon="6.08063">
        <ele>753.33032226562</ele>
        <time>2013-12-07T11:30:05Z</time>
      </trkpt>
      <trkpt lat="44.05244" lon="6.08069">
        <ele>756.21411132812</ele>
        <time>2013-12-07T11:30:23Z</time>
      </trkpt>
      <trkpt lat="44.0524" lon="6.08074">
        <ele>759.09814453125</ele>
        <time>2013-12-07T11:30:39Z</time>
      </trkpt>
      <trkpt lat="44.05235" lon="6.08084">
        <ele>761.02075195312</ele>
        <time>2013-12-07T11:30:55Z</time>
      </trkpt>
      <trkpt lat="44.0523" lon="6.08097">
        <ele>764.38549804688</ele>
        <time>2013-12-07T11:31:14Z</time>
      </trkpt>
      <trkpt lat="44.05221" lon="6.0811">
        <ele>766.78881835938</ele>
        <time>2013-12-07T11:31:33Z</time>
      </trkpt>
      <trkpt lat="44.05213" lon="6.08125">
        <ele>768.23071289062</ele>
        <time>2013-12-07T11:31:51Z</time>
      </trkpt>
      <trkpt lat="44.05204" lon="6.08143">
        <ele>770.1533203125</ele>
        <time>2013-12-07T11:32:09Z</time>
      </trkpt>
      <trkpt lat="44.05202" lon="6.08144">
        <ele>770.63403320312</ele>
        <time>2013-12-07T11:32:11Z</time>
      </trkpt>
      <trkpt lat="44.05194" lon="6.08167">
        <ele>771.59521484375</ele>
        <time>2013-12-07T11:32:32Z</time>
      </trkpt>
      <trkpt lat="44.05199" lon="6.08191">
        <ele>770.1533203125</ele>
        <time>2013-12-07T11:32:51Z</time>
      </trkpt>
      <trkpt lat="44.05199" lon="6.08202">
        <ele>769.6728515625</ele>
        <time>2013-12-07T11:33:09Z</time>
      </trkpt>
      <trkpt lat="44.05202" lon="6.08225">
        <ele>768.23071289062</ele>
        <time>2013-12-07T11:33:29Z</time>
      </trkpt>
      <trkpt lat="44.05196" lon="6.08252">
        <ele>765.82763671875</ele>
        <time>2013-12-07T11:33:48Z</time>
      </trkpt>
      <trkpt lat="44.0519" lon="6.08271">
        <ele>764.8662109375</ele>
        <time>2013-12-07T11:34:04Z</time>
      </trkpt>
      <trkpt lat="44.05188" lon="6.08275">
        <ele>763.90454101562</ele>
        <time>2013-12-07T11:34:08Z</time>
      </trkpt>
      <trkpt lat="44.05175" lon="6.08294">
        <ele>761.02075195312</ele>
        <time>2013-12-07T11:34:26Z</time>
      </trkpt>
      <trkpt lat="44.05173" lon="6.08296">
        <ele>761.02075195312</ele>
        <time>2013-12-07T11:34:28Z</time>
      </trkpt>
      <trkpt lat="44.0517" lon="6.08297">
        <ele>760.5400390625</ele>
        <time>2013-12-07T11:34:31Z</time>
      </trkpt>
      <trkpt lat="44.05165" lon="6.08297">
        <ele>760.5400390625</ele>
        <time>2013-12-07T11:34:37Z</time>
      </trkpt>
      <trkpt lat="44.05146" lon="6.08304">
        <ele>759.09814453125</ele>
        <time>2013-12-07T11:34:54Z</time>
      </trkpt>
      <trkpt lat="44.05144" lon="6.08304">
        <ele>759.09814453125</ele>
        <time>2013-12-07T11:34:58Z</time>
      </trkpt>
      <trkpt lat="44.0514" lon="6.08302">
        <ele>759.09814453125</ele>
        <time>2013-12-07T11:35:02Z</time>
      </trkpt>
      <trkpt lat="44.05127" lon="6.083">
        <ele>760.5400390625</ele>
        <time>2013-12-07T11:35:14Z</time>
      </trkpt>
      <trkpt lat="44.0511" lon="6.08301">
        <ele>761.02075195312</ele>
        <time>2013-12-07T11:35:27Z</time>
      </trkpt>
      <trkpt lat="44.05109" lon="6.08301">
        <ele>761.50146484375</ele>
        <time>2013-12-07T11:35:28Z</time>
      </trkpt>
      <trkpt lat="44.05104" lon="6.08302">
        <ele>762.46264648438</ele>
        <time>2013-12-07T11:35:33Z</time>
      </trkpt>
      <trkpt lat="44.051" lon="6.08304">
        <ele>762.46264648438</ele>
        <time>2013-12-07T11:35:37Z</time>
      </trkpt>
      <trkpt lat="44.05098" lon="6.08305">
        <ele>761.98217773438</ele>
        <time>2013-12-07T11:35:39Z</time>
      </trkpt>
      <trkpt lat="44.05086" lon="6.08305">
        <ele>764.38549804688</ele>
        <time>2013-12-07T11:35:55Z</time>
      </trkpt>
      <trkpt lat="44.05075" lon="6.08291">
        <ele>765.82763671875</ele>
        <time>2013-12-07T11:36:09Z</time>
      </trkpt>
      <trkpt lat="44.05072" lon="6.08285">
        <ele>766.30810546875</ele>
        <time>2013-12-07T11:36:16Z</time>
      </trkpt>
      <trkpt lat="44.05063" lon="6.08275">
        <ele>768.71142578125</ele>
        <time>2013-12-07T11:36:30Z</time>
      </trkpt>
      <trkpt lat="44.0505" lon="6.08258">
        <ele>770.1533203125</ele>
        <time>2013-12-07T11:36:45Z</time>
      </trkpt>
      <trkpt lat="44.05042" lon="6.08245">
        <ele>772.07592773438</ele>
        <time>2013-12-07T11:37:00Z</time>
      </trkpt>
      <trkpt lat="44.05034" lon="6.0823">
        <ele>772.556640625</ele>
        <time>2013-12-07T11:37:14Z</time>
      </trkpt>
      <trkpt lat="44.0503" lon="6.08229">
        <ele>773.03735351562</ele>
        <time>2013-12-07T11:37:33Z</time>
      </trkpt>
      <trkpt lat="44.05023" lon="6.08226">
        <ele>774.47924804688</ele>
        <time>2013-12-07T11:38:02Z</time>
      </trkpt>
      <trkpt lat="44.05008" lon="6.0822">
        <ele>772.556640625</ele>
        <time>2013-12-07T11:38:22Z</time>
      </trkpt>
      <trkpt lat="44.0502" lon="6.0822">
        <ele>776.40185546875</ele>
        <time>2013-12-07T12:47:37Z</time>
      </trkpt>
      <trkpt lat="44.0503" lon="6.08221">
        <ele>774.47924804688</ele>
        <time>2013-12-07T12:47:50Z</time>
      </trkpt>
      <trkpt lat="44.0504" lon="6.08228">
        <ele>773.99853515625</ele>
        <time>2013-12-07T12:48:04Z</time>
      </trkpt>
      <trkpt lat="44.05055" lon="6.08249">
        <ele>772.556640625</ele>
        <time>2013-12-07T12:48:24Z</time>
      </trkpt>
      <trkpt lat="44.05066" lon="6.08269">
        <ele>769.6728515625</ele>
        <time>2013-12-07T12:48:44Z</time>
      </trkpt>
      <trkpt lat="44.05074" lon="6.0829">
        <ele>767.26953125</ele>
        <time>2013-12-07T12:49:00Z</time>
      </trkpt>
      <trkpt lat="44.05084" lon="6.08297">
        <ele>766.30810546875</ele>
        <time>2013-12-07T12:49:14Z</time>
      </trkpt>
      <trkpt lat="44.05092" lon="6.08306">
        <ele>765.34692382812</ele>
        <time>2013-12-07T12:49:30Z</time>
      </trkpt>
      <trkpt lat="44.05099" lon="6.08302">
        <ele>762.943359375</ele>
        <time>2013-12-07T12:49:54Z</time>
      </trkpt>
      <trkpt lat="44.05107" lon="6.08296">
        <ele>762.46264648438</ele>
        <time>2013-12-07T12:50:02Z</time>
      </trkpt>
      <trkpt lat="44.0511" lon="6.08296">
        <ele>762.46264648438</ele>
        <time>2013-12-07T12:50:04Z</time>
      </trkpt>
      <trkpt lat="44.05123" lon="6.08295">
        <ele>761.98217773438</ele>
        <time>2013-12-07T12:50:17Z</time>
      </trkpt>
      <trkpt lat="44.05137" lon="6.08297">
        <ele>760.5400390625</ele>
        <time>2013-12-07T12:50:32Z</time>
      </trkpt>
      <trkpt lat="44.05146" lon="6.08299">
        <ele>760.05932617188</ele>
        <time>2013-12-07T12:50:40Z</time>
      </trkpt>
      <trkpt lat="44.05149" lon="6.08295">
        <ele>760.05932617188</ele>
        <time>2013-12-07T12:50:44Z</time>
      </trkpt>
      <trkpt lat="44.05162" lon="6.0829">
        <ele>761.02075195312</ele>
        <time>2013-12-07T12:50:59Z</time>
      </trkpt>
      <trkpt lat="44.0517" lon="6.08288">
        <ele>761.50146484375</ele>
        <time>2013-12-07T12:51:07Z</time>
      </trkpt>
      <trkpt lat="44.05173" lon="6.08286">
        <ele>761.50146484375</ele>
        <time>2013-12-07T12:51:11Z</time>
      </trkpt>
      <trkpt lat="44.0518" lon="6.08278">
        <ele>763.42407226562</ele>
        <time>2013-12-07T12:51:22Z</time>
      </trkpt>
      <trkpt lat="44.05189" lon="6.08267">
        <ele>765.34692382812</ele>
        <time>2013-12-07T12:51:38Z</time>
      </trkpt>
      <trkpt lat="44.05191" lon="6.08266">
        <ele>765.34692382812</ele>
        <time>2013-12-07T12:51:40Z</time>
      </trkpt>
      <trkpt lat="44.05195" lon="6.08261">
        <ele>765.34692382812</ele>
        <time>2013-12-07T12:51:52Z</time>
      </trkpt>
      <trkpt lat="44.05194" lon="6.08251">
        <ele>765.82763671875</ele>
        <time>2013-12-07T12:51:59Z</time>
      </trkpt>
      <trkpt lat="44.05198" lon="6.08253">
        <ele>765.34692382812</ele>
        <time>2013-12-07T12:56:20Z</time>
      </trkpt>
      <trkpt lat="44.052" lon="6.08265">
        <ele>764.38549804688</ele>
        <time>2013-12-07T12:56:35Z</time>
      </trkpt>
      <trkpt lat="44.05199" lon="6.08265">
        <ele>764.38549804688</ele>
        <time>2013-12-07T12:57:26Z</time>
      </trkpt>
      <trkpt lat="44.05206" lon="6.08274">
        <ele>764.8662109375</ele>
        <time>2013-12-07T12:57:43Z</time>
      </trkpt>
      <trkpt lat="44.05205" lon="6.08281">
        <ele>764.38549804688</ele>
        <time>2013-12-07T12:58:02Z</time>
      </trkpt>
      <trkpt lat="44.052" lon="6.08297">
        <ele>762.46264648438</ele>
        <time>2013-12-07T12:58:17Z</time>
      </trkpt>
      <trkpt lat="44.05185" lon="6.08324">
        <ele>759.09814453125</ele>
        <time>2013-12-07T12:58:41Z</time>
      </trkpt>
      <trkpt lat="44.05175" lon="6.08334">
        <ele>756.69482421875</ele>
        <time>2013-12-07T12:58:56Z</time>
      </trkpt>
      <trkpt lat="44.05169" lon="6.08352">
        <ele>755.2529296875</ele>
        <time>2013-12-07T12:59:12Z</time>
      </trkpt>
      <trkpt lat="44.05167" lon="6.0836">
        <ele>754.77221679688</ele>
        <time>2013-12-07T12:59:17Z</time>
      </trkpt>
      <trkpt lat="44.05164" lon="6.08364">
        <ele>754.77221679688</ele>
        <time>2013-12-07T12:59:21Z</time>
      </trkpt>
      <trkpt lat="44.05161" lon="6.08378">
        <ele>753.33032226562</ele>
        <time>2013-12-07T12:59:34Z</time>
      </trkpt>
      <trkpt lat="44.05157" lon="6.08395">
        <ele>751.40771484375</ele>
        <time>2013-12-07T12:59:50Z</time>
      </trkpt>
      <trkpt lat="44.05156" lon="6.08396">
        <ele>751.40771484375</ele>
        <time>2013-12-07T12:59:51Z</time>
      </trkpt>
      <trkpt lat="44.05152" lon="6.08399">
        <ele>750.92700195312</ele>
        <time>2013-12-07T12:59:55Z</time>
      </trkpt>
      <trkpt lat="44.05136" lon="6.08409">
        <ele>748.52368164062</ele>
        <time>2013-12-07T13:00:14Z</time>
      </trkpt>
      <trkpt lat="44.05133" lon="6.08412">
        <ele>748.04321289062</ele>
        <time>2013-12-07T13:00:18Z</time>
      </trkpt>
      <trkpt lat="44.05124" lon="6.08435">
        <ele>746.12036132812</ele>
        <time>2013-12-07T13:00:38Z</time>
      </trkpt>
      <trkpt lat="44.05115" lon="6.08448">
        <ele>743.71704101562</ele>
        <time>2013-12-07T13:00:52Z</time>
      </trkpt>
      <trkpt lat="44.05109" lon="6.08464">
        <ele>741.31372070312</ele>
        <time>2013-12-07T13:01:08Z</time>
      </trkpt>
      <trkpt lat="44.05109" lon="6.08479">
        <ele>738.42993164062</ele>
        <time>2013-12-07T13:01:24Z</time>
      </trkpt>
      <trkpt lat="44.05109" lon="6.08496">
        <ele>735.5458984375</ele>
        <time>2013-12-07T13:01:41Z</time>
      </trkpt>
      <trkpt lat="44.05106" lon="6.08499">
        <ele>734.58471679688</ele>
        <time>2013-12-07T13:01:46Z</time>
      </trkpt>
      <trkpt lat="44.05101" lon="6.08515">
        <ele>731.70043945312</ele>
        <time>2013-12-07T13:02:04Z</time>
      </trkpt>
      <trkpt lat="44.05097" lon="6.08527">
        <ele>728.81665039062</ele>
        <time>2013-12-07T13:02:21Z</time>
      </trkpt>
      <trkpt lat="44.05089" lon="6.08545">
        <ele>725.9326171875</ele>
        <time>2013-12-07T13:02:40Z</time>
      </trkpt>
      <trkpt lat="44.05084" lon="6.08557">
        <ele>722.56811523438</ele>
        <time>2013-12-07T13:02:58Z</time>
      </trkpt>
      <trkpt lat="44.05074" lon="6.08573">
        <ele>719.20361328125</ele>
        <time>2013-12-07T13:03:19Z</time>
      </trkpt>
      <trkpt lat="44.05066" lon="6.08588">
        <ele>716.31958007812</ele>
        <time>2013-12-07T13:03:37Z</time>
      </trkpt>
      <trkpt lat="44.05065" lon="6.08606">
        <ele>713.435546875</ele>
        <time>2013-12-07T13:03:55Z</time>
      </trkpt>
      <trkpt lat="44.05066" lon="6.08614">
        <ele>712.47412109375</ele>
        <time>2013-12-07T13:04:12Z</time>
      </trkpt>
      <trkpt lat="44.05064" lon="6.08632">
        <ele>710.07080078125</ele>
        <time>2013-12-07T13:04:29Z</time>
      </trkpt>
      <trkpt lat="44.05065" lon="6.08637">
        <ele>709.59033203125</ele>
        <time>2013-12-07T13:04:33Z</time>
      </trkpt>
      <trkpt lat="44.05054" lon="6.08659">
        <ele>706.2255859375</ele>
        <time>2013-12-07T13:04:55Z</time>
      </trkpt>
      <trkpt lat="44.05051" lon="6.08678">
        <ele>703.341796875</ele>
        <time>2013-12-07T13:05:14Z</time>
      </trkpt>
      <trkpt lat="44.05043" lon="6.08692">
        <ele>700.4580078125</ele>
        <time>2013-12-07T13:05:30Z</time>
      </trkpt>
      <trkpt lat="44.05038" lon="6.08712">
        <ele>697.57373046875</ele>
        <time>2013-12-07T13:05:51Z</time>
      </trkpt>
      <trkpt lat="44.05033" lon="6.08724">
        <ele>694.68969726562</ele>
        <time>2013-12-07T13:06:10Z</time>
      </trkpt>
      <trkpt lat="44.05032" lon="6.08737">
        <ele>692.28662109375</ele>
        <time>2013-12-07T13:06:25Z</time>
      </trkpt>
      <trkpt lat="44.05026" lon="6.08752">
        <ele>688.92211914062</ele>
        <time>2013-12-07T13:06:43Z</time>
      </trkpt>
      <trkpt lat="44.05022" lon="6.08766">
        <ele>686.51879882812</ele>
        <time>2013-12-07T13:06:58Z</time>
      </trkpt>
      <trkpt lat="44.05017" lon="6.08775">
        <ele>683.63452148438</ele>
        <time>2013-12-07T13:07:13Z</time>
      </trkpt>
      <trkpt lat="44.05015" lon="6.08779">
        <ele>682.67333984375</ele>
        <time>2013-12-07T13:07:24Z</time>
      </trkpt>
      <trkpt lat="44.05019" lon="6.08787">
        <ele>679.78930664062</ele>
        <time>2013-12-07T13:07:38Z</time>
      </trkpt>
      <trkpt lat="44.05024" lon="6.08794">
        <ele>677.38623046875</ele>
        <time>2013-12-07T13:07:53Z</time>
      </trkpt>
      <trkpt lat="44.0503" lon="6.08795">
        <ele>675.46337890625</ele>
        <time>2013-12-07T13:08:08Z</time>
      </trkpt>
      <trkpt lat="44.05038" lon="6.08806">
        <ele>673.541015625</ele>
        <time>2013-12-07T13:08:25Z</time>
      </trkpt>
      <trkpt lat="44.05037" lon="6.08813">
        <ele>669.69580078125</ele>
        <time>2013-12-07T13:08:38Z</time>
      </trkpt>
      <trkpt lat="44.0504" lon="6.08823">
        <ele>668.734375</ele>
        <time>2013-12-07T13:08:58Z</time>
      </trkpt>
      <trkpt lat="44.0504" lon="6.08831">
        <ele>665.36962890625</ele>
        <time>2013-12-07T13:09:14Z</time>
      </trkpt>
      <trkpt lat="44.05035" lon="6.08836">
        <ele>663.44702148438</ele>
        <time>2013-12-07T13:09:32Z</time>
      </trkpt>
      <trkpt lat="44.05034" lon="6.0884">
        <ele>662.00512695312</ele>
        <time>2013-12-07T13:09:50Z</time>
      </trkpt>
      <trkpt lat="44.05035" lon="6.08839">
        <ele>661.5244140625</ele>
        <time>2013-12-07T13:09:52Z</time>
      </trkpt>
      <trkpt lat="44.05045" lon="6.08849">
        <ele>660.08227539062</ele>
        <time>2013-12-07T13:10:07Z</time>
      </trkpt>
      <trkpt lat="44.05046" lon="6.0885">
        <ele>660.08227539062</ele>
        <time>2013-12-07T13:10:08Z</time>
      </trkpt>
      <trkpt lat="44.05064" lon="6.08861">
        <ele>658.64038085938</ele>
        <time>2013-12-07T13:10:22Z</time>
      </trkpt>
      <trkpt lat="44.05082" lon="6.08875">
        <ele>660.08227539062</ele>
        <time>2013-12-07T13:10:43Z</time>
      </trkpt>
      <trkpt lat="44.0509" lon="6.08879">
        <ele>663.92749023438</ele>
        <time>2013-12-07T13:11:02Z</time>
      </trkpt>
      <trkpt lat="44.05089" lon="6.08887">
        <ele>660.56298828125</ele>
        <time>2013-12-07T13:11:14Z</time>
      </trkpt>
      <trkpt lat="44.05086" lon="6.08892">
        <ele>660.56298828125</ele>
        <time>2013-12-07T13:11:18Z</time>
      </trkpt>
      <trkpt lat="44.05083" lon="6.08894">
        <ele>661.04370117188</ele>
        <time>2013-12-07T13:11:33Z</time>
      </trkpt>
      <trkpt lat="44.05079" lon="6.08897">
        <ele>660.56298828125</ele>
        <time>2013-12-07T13:11:57Z</time>
      </trkpt>
      <trkpt lat="44.05075" lon="6.08903">
        <ele>661.04370117188</ele>
        <time>2013-12-07T13:12:11Z</time>
      </trkpt>
      <trkpt lat="44.05073" lon="6.08911">
        <ele>661.04370117188</ele>
        <time>2013-12-07T13:12:26Z</time>
      </trkpt>
      <trkpt lat="44.05063" lon="6.08922">
        <ele>661.04370117188</ele>
        <time>2013-12-07T13:12:44Z</time>
      </trkpt>
      <trkpt lat="44.05065" lon="6.08926">
        <ele>660.56298828125</ele>
        <time>2013-12-07T13:13:04Z</time>
      </trkpt>
      <trkpt lat="44.05067" lon="6.08934">
        <ele>660.56298828125</ele>
        <time>2013-12-07T13:13:19Z</time>
      </trkpt>
      <trkpt lat="44.05065" lon="6.0894">
        <ele>659.60180664062</ele>
        <time>2013-12-07T13:13:41Z</time>
      </trkpt>
      <trkpt lat="44.05057" lon="6.08957">
        <ele>657.19848632812</ele>
        <time>2013-12-07T13:14:03Z</time>
      </trkpt>
      <trkpt lat="44.05055" lon="6.08958">
        <ele>657.19848632812</ele>
        <time>2013-12-07T13:15:01Z</time>
      </trkpt>
      <trkpt lat="44.05051" lon="6.08962">
        <ele>657.19848632812</ele>
        <time>2013-12-07T13:15:31Z</time>
      </trkpt>
      <trkpt lat="44.05054" lon="6.0896">
        <ele>656.7177734375</ele>
        <time>2013-12-07T13:15:59Z</time>
      </trkpt>
      <trkpt lat="44.05055" lon="6.08956">
        <ele>656.7177734375</ele>
        <time>2013-12-07T13:16:18Z</time>
      </trkpt>
      <trkpt lat="44.05057" lon="6.08957">
        <ele>656.7177734375</ele>
        <time>2013-12-07T13:17:10Z</time>
      </trkpt>
      <trkpt lat="44.05059" lon="6.08959">
        <ele>656.7177734375</ele>
        <time>2013-12-07T13:17:43Z</time>
      </trkpt>
      <trkpt lat="44.05061" lon="6.08959">
        <ele>655.75659179688</ele>
        <time>2013-12-07T13:17:58Z</time>
      </trkpt>
      <trkpt lat="44.05063" lon="6.08972">
        <ele>652.87255859375</ele>
        <time>2013-12-07T13:18:14Z</time>
      </trkpt>
      <trkpt lat="44.05062" lon="6.08981">
        <ele>651.9111328125</ele>
        <time>2013-12-07T13:18:27Z</time>
      </trkpt>
      <trkpt lat="44.05062" lon="6.08993">
        <ele>650.94970703125</ele>
        <time>2013-12-07T13:18:52Z</time>
      </trkpt>
      <trkpt lat="44.05067" lon="6.08997">
        <ele>647.58520507812</ele>
        <time>2013-12-07T13:19:07Z</time>
      </trkpt>
      <trkpt lat="44.05079" lon="6.08996">
        <ele>644.701171875</ele>
        <time>2013-12-07T13:19:22Z</time>
      </trkpt>
      <trkpt lat="44.05089" lon="6.08996">
        <ele>641.8173828125</ele>
        <time>2013-12-07T13:19:36Z</time>
      </trkpt>
      <trkpt lat="44.05096" lon="6.08997">
        <ele>638.45288085938</ele>
        <time>2013-12-07T13:19:53Z</time>
      </trkpt>
      <trkpt lat="44.05102" lon="6.09009">
        <ele>635.56860351562</ele>
        <time>2013-12-07T13:20:09Z</time>
      </trkpt>
      <trkpt lat="44.05104" lon="6.09022">
        <ele>633.64599609375</ele>
        <time>2013-12-07T13:20:21Z</time>
      </trkpt>
      <trkpt lat="44.05106" lon="6.09034">
        <ele>632.2041015625</ele>
        <time>2013-12-07T13:20:35Z</time>
      </trkpt>
      <trkpt lat="44.05109" lon="6.09042">
        <ele>630.28149414062</ele>
        <time>2013-12-07T13:20:48Z</time>
      </trkpt>
      <trkpt lat="44.05113" lon="6.09054">
        <ele>628.83959960938</ele>
        <time>2013-12-07T13:20:59Z</time>
      </trkpt>
      <trkpt lat="44.05121" lon="6.09074">
        <ele>627.87817382812</ele>
        <time>2013-12-07T13:21:18Z</time>
      </trkpt>
      <trkpt lat="44.05125" lon="6.09092">
        <ele>626.43627929688</ele>
        <time>2013-12-07T13:21:30Z</time>
      </trkpt>
      <trkpt lat="44.05129" lon="6.09098">
        <ele>626.43627929688</ele>
        <time>2013-12-07T13:21:34Z</time>
      </trkpt>
      <trkpt lat="44.05137" lon="6.09103">
        <ele>626.43627929688</ele>
        <time>2013-12-07T13:21:42Z</time>
      </trkpt>
      <trkpt lat="44.05148" lon="6.09125">
        <ele>624.99438476562</ele>
        <time>2013-12-07T13:22:00Z</time>
      </trkpt>
      <trkpt lat="44.05155" lon="6.0914">
        <ele>622.1103515625</ele>
        <time>2013-12-07T13:22:17Z</time>
      </trkpt>
      <trkpt lat="44.05157" lon="6.09148">
        <ele>620.18774414062</ele>
        <time>2013-12-07T13:22:35Z</time>
      </trkpt>
      <trkpt lat="44.0516" lon="6.09157">
        <ele>617.7841796875</ele>
        <time>2013-12-07T13:22:56Z</time>
      </trkpt>
      <trkpt lat="44.05165" lon="6.09162">
        <ele>614.900390625</ele>
        <time>2013-12-07T13:23:08Z</time>
      </trkpt>
      <trkpt lat="44.05172" lon="6.09167">
        <ele>612.97778320312</ele>
        <time>2013-12-07T13:23:22Z</time>
      </trkpt>
      <trkpt lat="44.05177" lon="6.09167">
        <ele>611.05517578125</ele>
        <time>2013-12-07T13:23:29Z</time>
      </trkpt>
      <trkpt lat="44.05184" lon="6.09174">
        <ele>607.69067382812</ele>
        <time>2013-12-07T13:23:46Z</time>
      </trkpt>
      <trkpt lat="44.05188" lon="6.0918">
        <ele>605.76806640625</ele>
        <time>2013-12-07T13:23:59Z</time>
      </trkpt>
      <trkpt lat="44.05192" lon="6.09186">
        <ele>603.36450195312</ele>
        <time>2013-12-07T13:24:11Z</time>
      </trkpt>
      <trkpt lat="44.05194" lon="6.09197">
        <ele>600.96118164062</ele>
        <time>2013-12-07T13:24:26Z</time>
      </trkpt>
      <trkpt lat="44.05197" lon="6.09207">
        <ele>598.55786132812</ele>
        <time>2013-12-07T13:24:41Z</time>
      </trkpt>
      <trkpt lat="44.05196" lon="6.09211">
        <ele>598.07739257812</ele>
        <time>2013-12-07T13:24:59Z</time>
      </trkpt>
      <trkpt lat="44.05198" lon="6.09218">
        <ele>595.67407226562</ele>
        <time>2013-12-07T13:25:28Z</time>
      </trkpt>
      <trkpt lat="44.05205" lon="6.09224">
        <ele>593.75146484375</ele>
        <time>2013-12-07T13:25:44Z</time>
      </trkpt>
      <trkpt lat="44.05212" lon="6.09229">
        <ele>590.86743164062</ele>
        <time>2013-12-07T13:26:02Z</time>
      </trkpt>
      <trkpt lat="44.05218" lon="6.09237">
        <ele>587.50268554688</ele>
        <time>2013-12-07T13:26:16Z</time>
      </trkpt>
      <trkpt lat="44.05224" lon="6.09249">
        <ele>584.61889648438</ele>
        <time>2013-12-07T13:26:37Z</time>
      </trkpt>
      <trkpt lat="44.0523" lon="6.09254">
        <ele>582.6962890625</ele>
        <time>2013-12-07T13:26:51Z</time>
      </trkpt>
      <trkpt lat="44.05237" lon="6.09256">
        <ele>579.81225585938</ele>
        <time>2013-12-07T13:27:06Z</time>
      </trkpt>
      <trkpt lat="44.05246" lon="6.0926">
        <ele>577.4091796875</ele>
        <time>2013-12-07T13:27:18Z</time>
      </trkpt>
      <trkpt lat="44.05249" lon="6.09264">
        <ele>575.486328125</ele>
        <time>2013-12-07T13:27:29Z</time>
      </trkpt>
      <trkpt lat="44.05258" lon="6.09269">
        <ele>573.56396484375</ele>
        <time>2013-12-07T13:27:42Z</time>
      </trkpt>
      <trkpt lat="44.0526" lon="6.09284">
        <ele>572.12182617188</ele>
        <time>2013-12-07T13:27:58Z</time>
      </trkpt>
      <trkpt lat="44.05263" lon="6.09295">
        <ele>570.6796875</ele>
        <time>2013-12-07T13:28:10Z</time>
      </trkpt>
      <trkpt lat="44.05268" lon="6.09311">
        <ele>568.2763671875</ele>
        <time>2013-12-07T13:28:28Z</time>
      </trkpt>
      <trkpt lat="44.05274" lon="6.09334">
        <ele>566.35375976562</ele>
        <time>2013-12-07T13:28:50Z</time>
      </trkpt>
      <trkpt lat="44.05279" lon="6.09342">
        <ele>564.91186523438</ele>
        <time>2013-12-07T13:29:02Z</time>
      </trkpt>
      <trkpt lat="44.05286" lon="6.09352">
        <ele>563.95043945312</ele>
        <time>2013-12-07T13:29:16Z</time>
      </trkpt>
      <trkpt lat="44.05295" lon="6.0937">
        <ele>562.02807617188</ele>
        <time>2013-12-07T13:29:33Z</time>
      </trkpt>
      <trkpt lat="44.05306" lon="6.09388">
        <ele>560.10522460938</ele>
        <time>2013-12-07T13:29:50Z</time>
      </trkpt>
      <trkpt lat="44.05318" lon="6.09403">
        <ele>557.7021484375</ele>
        <time>2013-12-07T13:30:10Z</time>
      </trkpt>
      <trkpt lat="44.0532" lon="6.09404">
        <ele>557.7021484375</ele>
        <time>2013-12-07T13:30:13Z</time>
      </trkpt>
      <trkpt lat="44.05336" lon="6.09411">
        <ele>555.779296875</ele>
        <time>2013-12-07T13:30:30Z</time>
      </trkpt>
      <trkpt lat="44.05348" lon="6.09416">
        <ele>554.33740234375</ele>
        <time>2013-12-07T13:30:44Z</time>
      </trkpt>
      <trkpt lat="44.05356" lon="6.09419">
        <ele>552.89526367188</ele>
        <time>2013-12-07T13:30:55Z</time>
      </trkpt>
      <trkpt lat="44.05361" lon="6.09431">
        <ele>550.01147460938</ele>
        <time>2013-12-07T13:31:11Z</time>
      </trkpt>
      <trkpt lat="44.05366" lon="6.09444">
        <ele>547.60815429688</ele>
        <time>2013-12-07T13:31:27Z</time>
      </trkpt>
      <trkpt lat="44.05367" lon="6.09456">
        <ele>545.20483398438</ele>
        <time>2013-12-07T13:31:43Z</time>
      </trkpt>
      <trkpt lat="44.0537" lon="6.09468">
        <ele>542.32092285156</ele>
        <time>2013-12-07T13:31:58Z</time>
      </trkpt>
      <trkpt lat="44.05372" lon="6.09482">
        <ele>539.91760253906</ele>
        <time>2013-12-07T13:32:12Z</time>
      </trkpt>
      <trkpt lat="44.05373" lon="6.09501">
        <ele>537.99499511719</ele>
        <time>2013-12-07T13:32:29Z</time>
      </trkpt>
      <trkpt lat="44.05371" lon="6.09514">
        <ele>536.55310058594</ele>
        <time>2013-12-07T13:32:40Z</time>
      </trkpt>
      <trkpt lat="44.05374" lon="6.0953">
        <ele>535.59155273438</ele>
        <time>2013-12-07T13:32:55Z</time>
      </trkpt>
      <trkpt lat="44.05377" lon="6.09548">
        <ele>534.63037109375</ele>
        <time>2013-12-07T13:33:11Z</time>
      </trkpt>
      <trkpt lat="44.0538" lon="6.09563">
        <ele>534.63037109375</ele>
        <time>2013-12-07T13:33:24Z</time>
      </trkpt>
      <trkpt lat="44.05381" lon="6.09574">
        <ele>534.14965820312</ele>
        <time>2013-12-07T13:33:33Z</time>
      </trkpt>
      <trkpt lat="44.05382" lon="6.09581">
        <ele>533.6689453125</ele>
        <time>2013-12-07T13:33:38Z</time>
      </trkpt>
      <trkpt lat="44.05385" lon="6.09598">
        <ele>532.70776367188</ele>
        <time>2013-12-07T13:33:51Z</time>
      </trkpt>
      <trkpt lat="44.05393" lon="6.09612">
        <ele>532.70776367188</ele>
        <time>2013-12-07T13:34:10Z</time>
      </trkpt>
      <trkpt lat="44.05394" lon="6.09613">
        <ele>532.70776367188</ele>
        <time>2013-12-07T13:34:13Z</time>
      </trkpt>
      <trkpt lat="44.05397" lon="6.09619">
        <ele>533.18835449219</ele>
        <time>2013-12-07T13:34:28Z</time>
      </trkpt>
      <trkpt lat="44.05402" lon="6.09624">
        <ele>533.6689453125</ele>
        <time>2013-12-07T13:34:35Z</time>
      </trkpt>
      <trkpt lat="44.05407" lon="6.09643">
        <ele>533.18835449219</ele>
        <time>2013-12-07T13:34:53Z</time>
      </trkpt>
      <trkpt lat="44.05406" lon="6.09653">
        <ele>532.70776367188</ele>
        <time>2013-12-07T13:35:29Z</time>
      </trkpt>
      <trkpt lat="44.05405" lon="6.09682">
        <ele>530.78515625</ele>
        <time>2013-12-07T13:35:47Z</time>
      </trkpt>
      <trkpt lat="44.05404" lon="6.09694">
        <ele>531.74633789062</ele>
        <time>2013-12-07T13:35:56Z</time>
      </trkpt>
      <trkpt lat="44.05397" lon="6.09709">
        <ele>531.26574707031</ele>
        <time>2013-12-07T13:36:08Z</time>
      </trkpt>
      <trkpt lat="44.05393" lon="6.09721">
        <ele>530.78515625</ele>
        <time>2013-12-07T13:36:28Z</time>
      </trkpt>
      <trkpt lat="44.05387" lon="6.09731">
        <ele>530.30444335938</ele>
        <time>2013-12-07T13:36:45Z</time>
      </trkpt>
      <trkpt lat="44.05384" lon="6.0974">
        <ele>529.82373046875</ele>
        <time>2013-12-07T13:37:06Z</time>
      </trkpt>
      <trkpt lat="44.05377" lon="6.09752">
        <ele>528.86254882812</ele>
        <time>2013-12-07T13:37:22Z</time>
      </trkpt>
      <trkpt lat="44.05368" lon="6.09777">
        <ele>528.3818359375</ele>
        <time>2013-12-07T13:37:43Z</time>
      </trkpt>
      <trkpt lat="44.05355" lon="6.09806">
        <ele>528.86254882812</ele>
        <time>2013-12-07T13:38:05Z</time>
      </trkpt>
      <trkpt lat="44.05344" lon="6.09826">
        <ele>527.42041015625</ele>
        <time>2013-12-07T13:38:21Z</time>
      </trkpt>
      <trkpt lat="44.05342" lon="6.09827">
        <ele>526.93981933594</ele>
        <time>2013-12-07T13:38:23Z</time>
      </trkpt>
      <trkpt lat="44.05339" lon="6.09831">
        <ele>526.45910644531</ele>
        <time>2013-12-07T13:38:26Z</time>
      </trkpt>
      <trkpt lat="44.0533" lon="6.09851">
        <ele>525.97839355469</ele>
        <time>2013-12-07T13:38:43Z</time>
      </trkpt>
      <trkpt lat="44.05329" lon="6.09858">
        <ele>525.97839355469</ele>
        <time>2013-12-07T13:38:46Z</time>
      </trkpt>
      <trkpt lat="44.05327" lon="6.09863">
        <ele>525.97839355469</ele>
        <time>2013-12-07T13:38:50Z</time>
      </trkpt>
      <trkpt lat="44.05322" lon="6.09885">
        <ele>526.93981933594</ele>
        <time>2013-12-07T13:39:05Z</time>
      </trkpt>
      <trkpt lat="44.05316" lon="6.09899">
        <ele>528.3818359375</ele>
        <time>2013-12-07T13:39:21Z</time>
      </trkpt>
      <trkpt lat="44.05308" lon="6.09916">
        <ele>529.34313964844</ele>
        <time>2013-12-07T13:39:36Z</time>
      </trkpt>
      <trkpt lat="44.05293" lon="6.09932">
        <ele>528.86254882812</ele>
        <time>2013-12-07T13:39:55Z</time>
      </trkpt>
      <trkpt lat="44.05288" lon="6.09939">
        <ele>528.3818359375</ele>
        <time>2013-12-07T13:40:01Z</time>
      </trkpt>
      <trkpt lat="44.05273" lon="6.09967">
        <ele>527.42041015625</ele>
        <time>2013-12-07T13:40:23Z</time>
      </trkpt>
      <trkpt lat="44.05265" lon="6.0998">
        <ele>526.45910644531</ele>
        <time>2013-12-07T13:40:40Z</time>
      </trkpt>
      <trkpt lat="44.05261" lon="6.0998">
        <ele>525.97839355469</ele>
        <time>2013-12-07T13:40:58Z</time>
      </trkpt>
      <trkpt lat="44.05263" lon="6.09977">
        <ele>525.49780273438</ele>
        <time>2013-12-07T13:41:28Z</time>
      </trkpt>
      <trkpt lat="44.05261" lon="6.09977">
        <ele>525.49780273438</ele>
        <time>2013-12-07T13:41:45Z</time>
      </trkpt>
      <trkpt lat="44.05262" lon="6.09977">
        <ele>525.97839355469</ele>
        <time>2013-12-07T13:42:10Z</time>
      </trkpt>
      <trkpt lat="44.05265" lon="6.09994">
        <ele>527.42041015625</ele>
        <time>2013-12-07T13:42:50Z</time>
      </trkpt>
      <trkpt lat="44.05254" lon="6.10022">
        <ele>525.49780273438</ele>
        <time>2013-12-07T13:43:16Z</time>
      </trkpt>
      <trkpt lat="44.05247" lon="6.10041">
        <ele>524.53649902344</ele>
        <time>2013-12-07T13:43:31Z</time>
      </trkpt>
      <trkpt lat="44.05245" lon="6.10044">
        <ele>524.53649902344</ele>
        <time>2013-12-07T13:43:33Z</time>
      </trkpt>
      <trkpt lat="44.05236" lon="6.10059">
        <ele>523.5751953125</ele>
        <time>2013-12-07T13:43:48Z</time>
      </trkpt>
      <trkpt lat="44.05234" lon="6.10063">
        <ele>523.5751953125</ele>
        <time>2013-12-07T13:43:50Z</time>
      </trkpt>
      <trkpt lat="44.0523" lon="6.10071">
        <ele>523.5751953125</ele>
        <time>2013-12-07T13:43:57Z</time>
      </trkpt>
      <trkpt lat="44.05224" lon="6.10098">
        <ele>523.09460449219</ele>
        <time>2013-12-07T13:44:15Z</time>
      </trkpt>
      <trkpt lat="44.05223" lon="6.10099">
        <ele>523.09460449219</ele>
        <time>2013-12-07T13:44:17Z</time>
      </trkpt>
      <trkpt lat="44.05216" lon="6.10107">
        <ele>522.61389160156</ele>
        <time>2013-12-07T13:44:23Z</time>
      </trkpt>
      <trkpt lat="44.05207" lon="6.10111">
        <ele>521.65258789062</ele>
        <time>2013-12-07T13:44:31Z</time>
      </trkpt>
      <trkpt lat="44.05189" lon="6.10122">
        <ele>519.72985839844</ele>
        <time>2013-12-07T13:44:50Z</time>
      </trkpt>
      <trkpt lat="44.05172" lon="6.10141">
        <ele>517.80725097656</ele>
        <time>2013-12-07T13:45:10Z</time>
      </trkpt>
      <trkpt lat="44.05161" lon="6.10161">
        <ele>515.88464355469</ele>
        <time>2013-12-07T13:45:29Z</time>
      </trkpt>
      <trkpt lat="44.05159" lon="6.10168">
        <ele>515.40405273438</ele>
        <time>2013-12-07T13:45:33Z</time>
      </trkpt>
      <trkpt lat="44.05154" lon="6.10184">
        <ele>514.44262695312</ele>
        <time>2013-12-07T13:45:45Z</time>
      </trkpt>
      <trkpt lat="44.05145" lon="6.10199">
        <ele>513.4814453125</ele>
        <time>2013-12-07T13:46:01Z</time>
      </trkpt>
      <trkpt lat="44.05135" lon="6.10216">
        <ele>512.52001953125</ele>
        <time>2013-12-07T13:46:14Z</time>
      </trkpt>
      <trkpt lat="44.05125" lon="6.10229">
        <ele>511.55871582031</ele>
        <time>2013-12-07T13:46:27Z</time>
      </trkpt>
      <trkpt lat="44.05117" lon="6.1025">
        <ele>510.11669921875</ele>
        <time>2013-12-07T13:46:43Z</time>
      </trkpt>
      <trkpt lat="44.05108" lon="6.10272">
        <ele>508.67468261719</ele>
        <time>2013-12-07T13:47:01Z</time>
      </trkpt>
      <trkpt lat="44.05105" lon="6.10285">
        <ele>508.19409179688</ele>
        <time>2013-12-07T13:47:11Z</time>
      </trkpt>
      <trkpt lat="44.05099" lon="6.10305">
        <ele>507.23278808594</ele>
        <time>2013-12-07T13:47:26Z</time>
      </trkpt>
      <trkpt lat="44.05092" lon="6.10327">
        <ele>506.271484375</ele>
        <time>2013-12-07T13:47:44Z</time>
      </trkpt>
      <trkpt lat="44.05085" lon="6.10352">
        <ele>504.82946777344</ele>
        <time>2013-12-07T13:48:02Z</time>
      </trkpt>
      <trkpt lat="44.0508" lon="6.10366">
        <ele>503.8681640625</ele>
        <time>2013-12-07T13:48:15Z</time>
      </trkpt>
      <trkpt lat="44.05071" lon="6.10393">
        <ele>501.46484375</ele>
        <time>2013-12-07T13:48:35Z</time>
      </trkpt>
      <trkpt lat="44.05062" lon="6.10415">
        <ele>499.54223632812</ele>
        <time>2013-12-07T13:48:52Z</time>
      </trkpt>
      <trkpt lat="44.05051" lon="6.10444">
        <ele>498.58093261719</ele>
        <time>2013-12-07T13:49:14Z</time>
      </trkpt>
      <trkpt lat="44.05042" lon="6.10472">
        <ele>498.58093261719</ele>
        <time>2013-12-07T13:49:35Z</time>
      </trkpt>
      <trkpt lat="44.05035" lon="6.10504">
        <ele>498.58093261719</ele>
        <time>2013-12-07T13:49:58Z</time>
      </trkpt>
      <trkpt lat="44.05033" lon="6.10523">
        <ele>498.58093261719</ele>
        <time>2013-12-07T13:50:11Z</time>
      </trkpt>
      <trkpt lat="44.05028" lon="6.10555">
        <ele>499.0615234375</ele>
        <time>2013-12-07T13:50:35Z</time>
      </trkpt>
      <trkpt lat="44.05027" lon="6.1057">
        <ele>499.0615234375</ele>
        <time>2013-12-07T13:50:51Z</time>
      </trkpt>
      <trkpt lat="44.05029" lon="6.10593">
        <ele>499.54223632812</ele>
        <time>2013-12-07T13:51:09Z</time>
      </trkpt>
      <trkpt lat="44.05029" lon="6.1061">
        <ele>499.54223632812</ele>
        <time>2013-12-07T13:51:21Z</time>
      </trkpt>
      <trkpt lat="44.05032" lon="6.1064">
        <ele>500.02294921875</ele>
        <time>2013-12-07T13:51:42Z</time>
      </trkpt>
      <trkpt lat="44.05032" lon="6.10665">
        <ele>500.50354003906</ele>
        <time>2013-12-07T13:52:02Z</time>
      </trkpt>
      <trkpt lat="44.05044" lon="6.10692">
        <ele>500.98413085938</ele>
        <time>2013-12-07T13:52:25Z</time>
      </trkpt>
      <trkpt lat="44.05053" lon="6.10716">
        <ele>500.02294921875</ele>
        <time>2013-12-07T13:52:45Z</time>
      </trkpt>
      <trkpt lat="44.05067" lon="6.10736">
        <ele>501.46484375</ele>
        <time>2013-12-07T13:53:06Z</time>
      </trkpt>
      <trkpt lat="44.05081" lon="6.10753">
        <ele>501.46484375</ele>
        <time>2013-12-07T13:53:24Z</time>
      </trkpt>
      <trkpt lat="44.05093" lon="6.10773">
        <ele>501.94555664062</ele>
        <time>2013-12-07T13:53:43Z</time>
      </trkpt>
      <trkpt lat="44.05105" lon="6.1079">
        <ele>502.42614746094</ele>
        <time>2013-12-07T13:54:00Z</time>
      </trkpt>
      <trkpt lat="44.05113" lon="6.10796">
        <ele>502.42614746094</ele>
        <time>2013-12-07T13:54:09Z</time>
      </trkpt>
      <trkpt lat="44.05124" lon="6.10799">
        <ele>502.90673828125</ele>
        <time>2013-12-07T13:54:20Z</time>
      </trkpt>
      <trkpt lat="44.05136" lon="6.10803">
        <ele>502.90673828125</ele>
        <time>2013-12-07T13:54:32Z</time>
      </trkpt>
      <trkpt lat="44.05153" lon="6.10812">
        <ele>503.38745117188</ele>
        <time>2013-12-07T13:54:52Z</time>
      </trkpt>
      <trkpt lat="44.05166" lon="6.10821">
        <ele>503.38745117188</ele>
        <time>2013-12-07T13:55:08Z</time>
      </trkpt>
      <trkpt lat="44.05189" lon="6.1083">
        <ele>504.34887695312</ele>
        <time>2013-12-07T13:55:32Z</time>
      </trkpt>
      <trkpt lat="44.05204" lon="6.10836">
        <ele>504.82946777344</ele>
        <time>2013-12-07T13:55:47Z</time>
      </trkpt>
      <trkpt lat="44.05221" lon="6.10846">
        <ele>505.31018066406</ele>
        <time>2013-12-07T13:56:05Z</time>
      </trkpt>
      <trkpt lat="44.05228" lon="6.10851">
        <ele>505.79089355469</ele>
        <time>2013-12-07T13:56:19Z</time>
      </trkpt>
      <trkpt lat="44.05231" lon="6.10856">
        <ele>505.79089355469</ele>
        <time>2013-12-07T13:56:57Z</time>
      </trkpt>
      <trkpt lat="44.05248" lon="6.10879">
        <ele>506.271484375</ele>
        <time>2013-12-07T13:57:20Z</time>
      </trkpt>
      <trkpt lat="44.0526" lon="6.10897">
        <ele>506.75207519531</ele>
        <time>2013-12-07T13:57:40Z</time>
      </trkpt>
      <trkpt lat="44.05278" lon="6.10923">
        <ele>507.23278808594</ele>
        <time>2013-12-07T13:58:04Z</time>
      </trkpt>
      <trkpt lat="44.05295" lon="6.1095">
        <ele>507.71350097656</ele>
        <time>2013-12-07T13:58:27Z</time>
      </trkpt>
      <trkpt lat="44.05307" lon="6.10971">
        <ele>508.19409179688</ele>
        <time>2013-12-07T13:58:45Z</time>
      </trkpt>
      <trkpt lat="44.05316" lon="6.10987">
        <ele>508.19409179688</ele>
        <time>2013-12-07T13:59:02Z</time>
      </trkpt>
      <trkpt lat="44.05327" lon="6.11009">
        <ele>509.15539550781</ele>
        <time>2013-12-07T13:59:22Z</time>
      </trkpt>
      <trkpt lat="44.05343" lon="6.11029">
        <ele>509.15539550781</ele>
        <time>2013-12-07T13:59:40Z</time>
      </trkpt>
      <trkpt lat="44.05359" lon="6.1104">
        <ele>509.15539550781</ele>
        <time>2013-12-07T13:59:59Z</time>
      </trkpt>
      <trkpt lat="44.05372" lon="6.11037">
        <ele>509.63610839844</ele>
        <time>2013-12-07T14:00:12Z</time>
      </trkpt>
      <trkpt lat="44.05375" lon="6.11034">
        <ele>510.11669921875</ele>
        <time>2013-12-07T14:00:16Z</time>
      </trkpt>
      <trkpt lat="44.05393" lon="6.11012">
        <ele>510.59729003906</ele>
        <time>2013-12-07T14:00:41Z</time>
      </trkpt>
      <trkpt lat="44.05414" lon="6.11001">
        <ele>510.59729003906</ele>
        <time>2013-12-07T14:01:04Z</time>
      </trkpt>
      <trkpt lat="44.05436" lon="6.10994">
        <ele>511.55871582031</ele>
        <time>2013-12-07T14:01:25Z</time>
      </trkpt>
      <trkpt lat="44.05454" lon="6.10988">
        <ele>512.03942871094</ele>
        <time>2013-12-07T14:01:45Z</time>
      </trkpt>
      <trkpt lat="44.05461" lon="6.10986">
        <ele>512.03942871094</ele>
        <time>2013-12-07T14:02:07Z</time>
      </trkpt>
      <trkpt lat="44.05461" lon="6.10986">
        <ele>512.52001953125</ele>
        <time>2013-12-07T14:03:15Z</time>
      </trkpt>
      <trkpt lat="44.05462" lon="6.10986">
        <ele>511.55871582031</ele>
        <time>2013-12-07T14:04:52Z</time>
      </trkpt>
      <trkpt lat="44.05463" lon="6.10986">
        <ele>513.00073242188</ele>
        <time>2013-12-07T14:05:35Z</time>
      </trkpt>
      <trkpt lat="44.05466" lon="6.10988">
        <ele>513.00073242188</ele>
        <time>2013-12-07T14:06:07Z</time>
      </trkpt>
      <trkpt lat="44.05462" lon="6.1099">
        <ele>513.00073242188</ele>
        <time>2013-12-07T14:06:27Z</time>
      </trkpt>
      <trkpt lat="44.05462" lon="6.10989">
        <ele>513.00073242188</ele>
        <time>2013-12-07T14:06:36Z</time>
      </trkpt>
      <trkpt lat="44.05462" lon="6.1099">
        <ele>513.00073242188</ele>
        <time>2013-12-07T14:06:44Z</time>
      </trkpt>
      <trkpt lat="44.05462" lon="6.10999">
        <ele>513.4814453125</ele>
        <time>2013-12-07T14:08:28Z</time>
      </trkpt>
      <trkpt lat="44.05446" lon="6.11007">
        <ele>513.4814453125</ele>
        <time>2013-12-07T14:08:45Z</time>
      </trkpt>
      <trkpt lat="44.05434" lon="6.11015">
        <ele>513.00073242188</ele>
        <time>2013-12-07T14:09:01Z</time>
      </trkpt>
      <trkpt lat="44.05421" lon="6.1102">
        <ele>513.00073242188</ele>
        <time>2013-12-07T14:09:29Z</time>
      </trkpt>
      <trkpt lat="44.05419" lon="6.1102">
        <ele>513.00073242188</ele>
        <time>2013-12-07T14:09:37Z</time>
      </trkpt>
      <trkpt lat="44.05399" lon="6.11032">
        <ele>513.00073242188</ele>
        <time>2013-12-07T14:09:57Z</time>
      </trkpt>
      <trkpt lat="44.05384" lon="6.1105">
        <ele>513.00073242188</ele>
        <time>2013-12-07T14:10:14Z</time>
      </trkpt>
      <trkpt lat="44.05371" lon="6.11076">
        <ele>513.96203613281</ele>
        <time>2013-12-07T14:10:32Z</time>
      </trkpt>
      <trkpt lat="44.05363" lon="6.11102">
        <ele>514.44262695312</ele>
        <time>2013-12-07T14:10:50Z</time>
      </trkpt>
      <trkpt lat="44.05359" lon="6.11125">
        <ele>514.92333984375</ele>
        <time>2013-12-07T14:11:04Z</time>
      </trkpt>
      <trkpt lat="44.05354" lon="6.11151">
        <ele>514.92333984375</ele>
        <time>2013-12-07T14:11:20Z</time>
      </trkpt>
      <trkpt lat="44.05348" lon="6.11174">
        <ele>514.92333984375</ele>
        <time>2013-12-07T14:11:35Z</time>
      </trkpt>
      <trkpt lat="44.05334" lon="6.112">
        <ele>516.365234375</ele>
        <time>2013-12-07T14:11:56Z</time>
      </trkpt>
      <trkpt lat="44.05331" lon="6.11226">
        <ele>516.365234375</ele>
        <time>2013-12-07T14:12:12Z</time>
      </trkpt>
      <trkpt lat="44.05323" lon="6.11252">
        <ele>517.32666015625</ele>
        <time>2013-12-07T14:12:28Z</time>
      </trkpt>
      <trkpt lat="44.05312" lon="6.11279">
        <ele>518.28784179688</ele>
        <time>2013-12-07T14:12:47Z</time>
      </trkpt>
      <trkpt lat="44.05301" lon="6.11297">
        <ele>519.72985839844</ele>
        <time>2013-12-07T14:13:06Z</time>
      </trkpt>
      <trkpt lat="44.0529" lon="6.11315">
        <ele>520.21057128906</ele>
        <time>2013-12-07T14:13:25Z</time>
      </trkpt>
      <trkpt lat="44.05277" lon="6.11335">
        <ele>521.17199707031</ele>
        <time>2013-12-07T14:13:46Z</time>
      </trkpt>
      <trkpt lat="44.05266" lon="6.11357">
        <ele>522.13317871094</ele>
        <time>2013-12-07T14:14:07Z</time>
      </trkpt>
      <trkpt lat="44.05254" lon="6.11378">
        <ele>523.5751953125</ele>
        <time>2013-12-07T14:14:28Z</time>
      </trkpt>
      <trkpt lat="44.05242" lon="6.114">
        <ele>524.53649902344</ele>
        <time>2013-12-07T14:14:48Z</time>
      </trkpt>
      <trkpt lat="44.05235" lon="6.11413">
        <ele>524.53649902344</ele>
        <time>2013-12-07T14:15:06Z</time>
      </trkpt>
      <trkpt lat="44.05223" lon="6.11434">
        <ele>525.49780273438</ele>
        <time>2013-12-07T14:15:29Z</time>
      </trkpt>
      <trkpt lat="44.0521" lon="6.11459">
        <ele>526.45910644531</ele>
        <time>2013-12-07T14:15:53Z</time>
      </trkpt>
      <trkpt lat="44.05197" lon="6.11482">
        <ele>527.42041015625</ele>
        <time>2013-12-07T14:16:16Z</time>
      </trkpt>
      <trkpt lat="44.05179" lon="6.11513">
        <ele>528.3818359375</ele>
        <time>2013-12-07T14:16:43Z</time>
      </trkpt>
      <trkpt lat="44.05167" lon="6.11541">
        <ele>528.3818359375</ele>
        <time>2013-12-07T14:17:05Z</time>
      </trkpt>
      <trkpt lat="44.05159" lon="6.11556">
        <ele>528.86254882812</ele>
        <time>2013-12-07T14:17:21Z</time>
      </trkpt>
      <trkpt lat="44.05151" lon="6.11568">
        <ele>528.86254882812</ele>
        <time>2013-12-07T14:17:34Z</time>
      </trkpt>
      <trkpt lat="44.05142" lon="6.11584">
        <ele>529.34313964844</ele>
        <time>2013-12-07T14:17:49Z</time>
      </trkpt>
      <trkpt lat="44.05131" lon="6.11607">
        <ele>530.78515625</ele>
        <time>2013-12-07T14:18:13Z</time>
      </trkpt>
      <trkpt lat="44.05131" lon="6.11608">
        <ele>530.78515625</ele>
        <time>2013-12-07T14:18:48Z</time>
      </trkpt>
      <trkpt lat="44.05121" lon="6.11627">
        <ele>530.78515625</ele>
        <time>2013-12-07T14:19:33Z</time>
      </trkpt>
      <trkpt lat="44.05104" lon="6.11657">
        <ele>531.74633789062</ele>
        <time>2013-12-07T14:19:55Z</time>
      </trkpt>
      <trkpt lat="44.05088" lon="6.11688">
        <ele>532.22705078125</ele>
        <time>2013-12-07T14:20:17Z</time>
      </trkpt>
      <trkpt lat="44.05069" lon="6.1172">
        <ele>533.6689453125</ele>
        <time>2013-12-07T14:20:43Z</time>
      </trkpt>
      <trkpt lat="44.05056" lon="6.11744">
        <ele>534.14965820312</ele>
        <time>2013-12-07T14:21:01Z</time>
      </trkpt>
      <trkpt lat="44.05043" lon="6.11769">
        <ele>534.14965820312</ele>
        <time>2013-12-07T14:21:22Z</time>
      </trkpt>
      <trkpt lat="44.05028" lon="6.11797">
        <ele>535.11096191406</ele>
        <time>2013-12-07T14:21:45Z</time>
      </trkpt>
      <trkpt lat="44.05013" lon="6.11824">
        <ele>535.59155273438</ele>
        <time>2013-12-07T14:22:05Z</time>
      </trkpt>
      <trkpt lat="44.04999" lon="6.11852">
        <ele>537.03369140625</ele>
        <time>2013-12-07T14:22:27Z</time>
      </trkpt>
      <trkpt lat="44.04996" lon="6.11859">
        <ele>536.55310058594</ele>
        <time>2013-12-07T14:22:32Z</time>
      </trkpt>
      <trkpt lat="44.04991" lon="6.11862">
        <ele>537.03369140625</ele>
        <time>2013-12-07T14:22:36Z</time>
      </trkpt>
      <trkpt lat="44.04981" lon="6.11889">
        <ele>536.55310058594</ele>
        <time>2013-12-07T14:22:55Z</time>
      </trkpt>
      <trkpt lat="44.0498" lon="6.11916">
        <ele>537.03369140625</ele>
        <time>2013-12-07T14:23:12Z</time>
      </trkpt>
      <trkpt lat="44.04976" lon="6.11944">
        <ele>536.55310058594</ele>
        <time>2013-12-07T14:23:31Z</time>
      </trkpt>
      <trkpt lat="44.04972" lon="6.11981">
        <ele>535.59155273438</ele>
        <time>2013-12-07T14:23:55Z</time>
      </trkpt>
      <trkpt lat="44.0497" lon="6.11997">
        <ele>535.59155273438</ele>
        <time>2013-12-07T14:24:03Z</time>
      </trkpt>
      <trkpt lat="44.0497" lon="6.12023">
        <ele>534.14965820312</ele>
        <time>2013-12-07T14:24:19Z</time>
      </trkpt>
      <trkpt lat="44.04979" lon="6.12046">
        <ele>533.6689453125</ele>
        <time>2013-12-07T14:24:35Z</time>
      </trkpt>
      <trkpt lat="44.04987" lon="6.12055">
        <ele>533.6689453125</ele>
        <time>2013-12-07T14:24:47Z</time>
      </trkpt>
      <trkpt lat="44.04993" lon="6.12062">
        <ele>533.18835449219</ele>
        <time>2013-12-07T14:24:55Z</time>
      </trkpt>
      <trkpt lat="44.05001" lon="6.12066">
        <ele>532.22705078125</ele>
        <time>2013-12-07T14:25:02Z</time>
      </trkpt>
      <trkpt lat="44.05012" lon="6.12074">
        <ele>534.14965820312</ele>
        <time>2013-12-07T14:25:13Z</time>
      </trkpt>
      <trkpt lat="44.0503" lon="6.1208">
        <ele>534.63037109375</ele>
        <time>2013-12-07T14:25:30Z</time>
      </trkpt>
      <trkpt lat="44.05029" lon="6.1208">
        <ele>534.63037109375</ele>
        <time>2013-12-07T14:25:49Z</time>
      </trkpt>
      <trkpt lat="44.05032" lon="6.12081">
        <ele>534.63037109375</ele>
        <time>2013-12-07T14:26:03Z</time>
      </trkpt>
      <trkpt lat="44.05046" lon="6.12088">
        <ele>534.63037109375</ele>
        <time>2013-12-07T14:26:29Z</time>
      </trkpt>
      <trkpt lat="44.05054" lon="6.12089">
        <ele>535.59155273438</ele>
        <time>2013-12-07T14:26:45Z</time>
      </trkpt>
      <trkpt lat="44.05056" lon="6.12088">
        <ele>536.07238769531</ele>
        <time>2013-12-07T14:27:00Z</time>
      </trkpt>
      <trkpt lat="44.05063" lon="6.12095">
        <ele>536.07238769531</ele>
        <time>2013-12-07T14:27:23Z</time>
      </trkpt>
      <trkpt lat="44.05071" lon="6.121">
        <ele>536.07238769531</ele>
        <time>2013-12-07T14:27:33Z</time>
      </trkpt>
      <trkpt lat="44.05086" lon="6.12116">
        <ele>536.55310058594</ele>
        <time>2013-12-07T14:27:49Z</time>
      </trkpt>
      <trkpt lat="44.05089" lon="6.12124">
        <ele>537.03369140625</ele>
        <time>2013-12-07T14:27:54Z</time>
      </trkpt>
      <trkpt lat="44.05101" lon="6.12162">
        <ele>538.47570800781</ele>
        <time>2013-12-07T14:28:20Z</time>
      </trkpt>
      <trkpt lat="44.05098" lon="6.12166">
        <ele>538.47570800781</ele>
        <time>2013-12-07T14:28:24Z</time>
      </trkpt>
      <trkpt lat="44.0509" lon="6.12169">
        <ele>539.43688964844</ele>
        <time>2013-12-07T14:28:31Z</time>
      </trkpt>
      <trkpt lat="44.05082" lon="6.12167">
        <ele>539.43688964844</ele>
        <time>2013-12-07T14:28:43Z</time>
      </trkpt>
      <trkpt lat="44.05062" lon="6.12161">
        <ele>540.87890625</ele>
        <time>2013-12-07T14:29:05Z</time>
      </trkpt>
      <trkpt lat="44.05047" lon="6.12176">
        <ele>542.32092285156</ele>
        <time>2013-12-07T14:29:24Z</time>
      </trkpt>
      <trkpt lat="44.05046" lon="6.12179">
        <ele>543.28210449219</ele>
        <time>2013-12-07T14:29:27Z</time>
      </trkpt>
      <trkpt lat="44.05039" lon="6.12195">
        <ele>544.24365234375</ele>
        <time>2013-12-07T14:29:43Z</time>
      </trkpt>
      <trkpt lat="44.05038" lon="6.12198">
        <ele>544.24365234375</ele>
        <time>2013-12-07T14:29:45Z</time>
      </trkpt>
      <trkpt lat="44.05031" lon="6.1222">
        <ele>546.64685058594</ele>
        <time>2013-12-07T14:30:04Z</time>
      </trkpt>
      <trkpt lat="44.05025" lon="6.12237">
        <ele>548.0888671875</ele>
        <time>2013-12-07T14:30:20Z</time>
      </trkpt>
      <trkpt lat="44.05015" lon="6.12258">
        <ele>548.5693359375</ele>
        <time>2013-12-07T14:30:37Z</time>
      </trkpt>
      <trkpt lat="44.05005" lon="6.1228">
        <ele>550.01147460938</ele>
        <time>2013-12-07T14:30:54Z</time>
      </trkpt>
      <trkpt lat="44.04997" lon="6.12296">
        <ele>551.93408203125</ele>
        <time>2013-12-07T14:31:09Z</time>
      </trkpt>
      <trkpt lat="44.04994" lon="6.12298">
        <ele>551.45336914062</ele>
        <time>2013-12-07T14:31:12Z</time>
      </trkpt>
      <trkpt lat="44.04989" lon="6.12306">
        <ele>550.4921875</ele>
        <time>2013-12-07T14:31:25Z</time>
      </trkpt>
      <trkpt lat="44.04975" lon="6.12312">
        <ele>548.0888671875</ele>
        <time>2013-12-07T14:32:04Z</time>
      </trkpt>
      <trkpt lat="44.04973" lon="6.12334">
        <ele>548.5693359375</ele>
        <time>2013-12-07T14:32:24Z</time>
      </trkpt>
      <trkpt lat="44.04966" lon="6.12352">
        <ele>549.05004882812</ele>
        <time>2013-12-07T14:33:02Z</time>
      </trkpt>
      <trkpt lat="44.04962" lon="6.12363">
        <ele>549.05004882812</ele>
        <time>2013-12-07T14:33:16Z</time>
      </trkpt>
      <trkpt lat="44.04965" lon="6.12385">
        <ele>549.05004882812</ele>
        <time>2013-12-07T14:33:30Z</time>
      </trkpt>
      <trkpt lat="44.0496" lon="6.12396">
        <ele>549.05004882812</ele>
        <time>2013-12-07T14:33:35Z</time>
      </trkpt>
      <trkpt lat="44.04951" lon="6.12415">
        <ele>548.0888671875</ele>
        <time>2013-12-07T14:33:49Z</time>
      </trkpt>
      <trkpt lat="44.04945" lon="6.12434">
        <ele>549.53076171875</ele>
        <time>2013-12-07T14:34:08Z</time>
      </trkpt>
      <trkpt lat="44.04944" lon="6.12438">
        <ele>548.5693359375</ele>
        <time>2013-12-07T14:34:38Z</time>
      </trkpt>
      <trkpt lat="44.0495" lon="6.12422">
        <ele>551.45336914062</ele>
        <time>2013-12-07T14:35:00Z</time>
      </trkpt>
      <trkpt lat="44.04946" lon="6.12429">
        <ele>549.05004882812</ele>
        <time>2013-12-07T14:35:43Z</time>
      </trkpt>
      <trkpt lat="44.04942" lon="6.12447">
        <ele>548.0888671875</ele>
        <time>2013-12-07T14:35:58Z</time>
      </trkpt>
      <trkpt lat="44.04934" lon="6.12476">
        <ele>545.685546875</ele>
        <time>2013-12-07T14:36:19Z</time>
      </trkpt>
      <trkpt lat="44.04928" lon="6.12498">
        <ele>542.80151367188</ele>
        <time>2013-12-07T14:36:37Z</time>
      </trkpt>
      <trkpt lat="44.04926" lon="6.12523">
        <ele>541.84020996094</ele>
        <time>2013-12-07T14:36:55Z</time>
      </trkpt>
      <trkpt lat="44.04921" lon="6.12544">
        <ele>540.87890625</ele>
        <time>2013-12-07T14:37:12Z</time>
      </trkpt>
      <trkpt lat="44.04922" lon="6.12552">
        <ele>540.87890625</ele>
        <time>2013-12-07T14:37:29Z</time>
      </trkpt>
      <trkpt lat="44.04919" lon="6.12564">
        <ele>540.39831542969</ele>
        <time>2013-12-07T14:37:49Z</time>
      </trkpt>
      <trkpt lat="44.04918" lon="6.12567">
        <ele>540.39831542969</ele>
        <time>2013-12-07T14:37:52Z</time>
      </trkpt>
      <trkpt lat="44.04908" lon="6.12592">
        <ele>539.43688964844</ele>
        <time>2013-12-07T14:38:09Z</time>
      </trkpt>
      <trkpt lat="44.04896" lon="6.12612">
        <ele>540.39831542969</ele>
        <time>2013-12-07T14:38:29Z</time>
      </trkpt>
      <trkpt lat="44.04892" lon="6.12616">
        <ele>539.43688964844</ele>
        <time>2013-12-07T14:38:34Z</time>
      </trkpt>
      <trkpt lat="44.04882" lon="6.12628">
        <ele>541.35949707031</ele>
        <time>2013-12-07T14:38:48Z</time>
      </trkpt>
      <trkpt lat="44.0488" lon="6.12634">
        <ele>541.35949707031</ele>
        <time>2013-12-07T14:39:07Z</time>
      </trkpt>
      <trkpt lat="44.0487" lon="6.12656">
        <ele>543.28210449219</ele>
        <time>2013-12-07T14:39:27Z</time>
      </trkpt>
      <trkpt lat="44.04867" lon="6.12663">
        <ele>543.28210449219</ele>
        <time>2013-12-07T14:39:41Z</time>
      </trkpt>
      <trkpt lat="44.04866" lon="6.12667">
        <ele>543.76281738281</ele>
        <time>2013-12-07T14:40:07Z</time>
      </trkpt>
      <trkpt lat="44.04856" lon="6.12695">
        <ele>544.72424316406</ele>
        <time>2013-12-07T14:40:30Z</time>
      </trkpt>
      <trkpt lat="44.04849" lon="6.1272">
        <ele>545.685546875</ele>
        <time>2013-12-07T14:40:50Z</time>
      </trkpt>
      <trkpt lat="44.04844" lon="6.12749">
        <ele>549.05004882812</ele>
        <time>2013-12-07T14:43:46Z</time>
      </trkpt>
      <trkpt lat="44.04845" lon="6.12752">
        <ele>550.01147460938</ele>
        <time>2013-12-07T14:44:10Z</time>
      </trkpt>
      <trkpt lat="44.04842" lon="6.12756">
        <ele>549.53076171875</ele>
        <time>2013-12-07T14:45:04Z</time>
      </trkpt>
      <trkpt lat="44.04842" lon="6.12757">
        <ele>549.53076171875</ele>
        <time>2013-12-07T14:45:05Z</time>
      </trkpt>
      <trkpt lat="44.04834" lon="6.12778">
        <ele>550.97265625</ele>
        <time>2013-12-07T14:45:25Z</time>
      </trkpt>
      <trkpt lat="44.04831" lon="6.12788">
        <ele>551.45336914062</ele>
        <time>2013-12-07T14:45:34Z</time>
      </trkpt>
      <trkpt lat="44.04832" lon="6.12809">
        <ele>550.4921875</ele>
        <time>2013-12-07T14:45:51Z</time>
      </trkpt>
      <trkpt lat="44.04828" lon="6.12837">
        <ele>548.0888671875</ele>
        <time>2013-12-07T14:46:12Z</time>
      </trkpt>
      <trkpt lat="44.04818" lon="6.12862">
        <ele>548.0888671875</ele>
        <time>2013-12-07T14:46:33Z</time>
      </trkpt>
      <trkpt lat="44.04809" lon="6.12881">
        <ele>548.0888671875</ele>
        <time>2013-12-07T14:46:51Z</time>
      </trkpt>
      <trkpt lat="44.04799" lon="6.12902">
        <ele>546.64685058594</ele>
        <time>2013-12-07T14:47:10Z</time>
      </trkpt>
      <trkpt lat="44.04791" lon="6.12917">
        <ele>546.16625976562</ele>
        <time>2013-12-07T14:47:25Z</time>
      </trkpt>
      <trkpt lat="44.04775" lon="6.12943">
        <ele>544.72424316406</ele>
        <time>2013-12-07T14:47:51Z</time>
      </trkpt>
      <trkpt lat="44.04762" lon="6.12964">
        <ele>543.28210449219</ele>
        <time>2013-12-07T14:48:11Z</time>
      </trkpt>
      <trkpt lat="44.04752" lon="6.12979">
        <ele>542.32092285156</ele>
        <time>2013-12-07T14:48:27Z</time>
      </trkpt>
      <trkpt lat="44.04738" lon="6.12999">
        <ele>541.35949707031</ele>
        <time>2013-12-07T14:48:49Z</time>
      </trkpt>
      <trkpt lat="44.04717" lon="6.13016">
        <ele>539.91760253906</ele>
        <time>2013-12-07T14:49:16Z</time>
      </trkpt>
      <trkpt lat="44.04695" lon="6.13033">
        <ele>538.47570800781</ele>
        <time>2013-12-07T14:49:44Z</time>
      </trkpt>
      <trkpt lat="44.0469" lon="6.13037">
        <ele>537.51428222656</ele>
        <time>2013-12-07T14:50:02Z</time>
      </trkpt>
      <trkpt lat="44.0468" lon="6.13047">
        <ele>537.03369140625</ele>
        <time>2013-12-07T14:50:51Z</time>
      </trkpt>
      <trkpt lat="44.04657" lon="6.13065">
        <ele>533.6689453125</ele>
        <time>2013-12-07T14:51:18Z</time>
      </trkpt>
      <trkpt lat="44.04643" lon="6.13076">
        <ele>532.70776367188</ele>
        <time>2013-12-07T14:51:37Z</time>
      </trkpt>
      <trkpt lat="44.04631" lon="6.13093">
        <ele>531.26574707031</ele>
        <time>2013-12-07T14:51:59Z</time>
      </trkpt>
      <trkpt lat="44.04632" lon="6.13105">
        <ele>528.86254882812</ele>
        <time>2013-12-07T14:52:16Z</time>
      </trkpt>
      <trkpt lat="44.0463" lon="6.13117">
        <ele>526.45910644531</ele>
        <time>2013-12-07T14:52:28Z</time>
      </trkpt>
      <trkpt lat="44.04627" lon="6.13138">
        <ele>523.09460449219</ele>
        <time>2013-12-07T14:52:43Z</time>
      </trkpt>
      <trkpt lat="44.04627" lon="6.13152">
        <ele>521.17199707031</ele>
        <time>2013-12-07T14:52:53Z</time>
      </trkpt>
      <trkpt lat="44.04628" lon="6.13169">
        <ele>519.24926757812</ele>
        <time>2013-12-07T14:53:04Z</time>
      </trkpt>
      <trkpt lat="44.04622" lon="6.13189">
        <ele>516.365234375</ele>
        <time>2013-12-07T14:53:21Z</time>
      </trkpt>
      <trkpt lat="44.04621" lon="6.13191">
        <ele>515.88464355469</ele>
        <time>2013-12-07T14:53:23Z</time>
      </trkpt>
      <trkpt lat="44.04612" lon="6.13216">
        <ele>513.00073242188</ele>
        <time>2013-12-07T14:53:42Z</time>
      </trkpt>
      <trkpt lat="44.0461" lon="6.1322">
        <ele>512.52001953125</ele>
        <time>2013-12-07T14:53:46Z</time>
      </trkpt>
      <trkpt lat="44.04603" lon="6.13233">
        <ele>511.55871582031</ele>
        <time>2013-12-07T14:53:59Z</time>
      </trkpt>
      <trkpt lat="44.04599" lon="6.13233">
        <ele>511.07800292969</ele>
        <time>2013-12-07T14:54:02Z</time>
      </trkpt>
      <trkpt lat="44.04592" lon="6.1323">
        <ele>510.59729003906</ele>
        <time>2013-12-07T14:54:20Z</time>
      </trkpt>
      <trkpt lat="44.04583" lon="6.13225">
        <ele>510.59729003906</ele>
        <time>2013-12-07T14:54:36Z</time>
      </trkpt>
      <trkpt lat="44.04578" lon="6.13223">
        <ele>510.59729003906</ele>
        <time>2013-12-07T14:54:47Z</time>
      </trkpt>
      <trkpt lat="44.04575" lon="6.13222">
        <ele>511.07800292969</ele>
        <time>2013-12-07T14:55:09Z</time>
      </trkpt>
      <trkpt lat="44.04571" lon="6.13216">
        <ele>511.07800292969</ele>
        <time>2013-12-07T14:55:17Z</time>
      </trkpt>
      <trkpt lat="44.04553" lon="6.13188">
        <ele>512.03942871094</ele>
        <time>2013-12-07T14:55:41Z</time>
      </trkpt>
      <trkpt lat="44.04541" lon="6.13164">
        <ele>510.59729003906</ele>
        <time>2013-12-07T14:56:00Z</time>
      </trkpt>
      <trkpt lat="44.04527" lon="6.13135">
        <ele>509.63610839844</ele>
        <time>2013-12-07T14:56:23Z</time>
      </trkpt>
      <trkpt lat="44.04514" lon="6.13112">
        <ele>509.15539550781</ele>
        <time>2013-12-07T14:56:46Z</time>
      </trkpt>
      <trkpt lat="44.04509" lon="6.131">
        <ele>508.19409179688</ele>
        <time>2013-12-07T14:57:04Z</time>
      </trkpt>
      <trkpt lat="44.04493" lon="6.13069">
        <ele>506.75207519531</ele>
        <time>2013-12-07T14:57:29Z</time>
      </trkpt>
      <trkpt lat="44.04478" lon="6.13035">
        <ele>505.31018066406</ele>
        <time>2013-12-07T14:57:56Z</time>
      </trkpt>
      <trkpt lat="44.04468" lon="6.13016">
        <ele>504.34887695312</ele>
        <time>2013-12-07T14:58:13Z</time>
      </trkpt>
      <trkpt lat="44.04453" lon="6.12984">
        <ele>503.38745117188</ele>
        <time>2013-12-07T14:58:37Z</time>
      </trkpt>
      <trkpt lat="44.04437" lon="6.12955">
        <ele>502.90673828125</ele>
        <time>2013-12-07T14:59:01Z</time>
      </trkpt>
      <trkpt lat="44.04426" lon="6.12933">
        <ele>502.90673828125</ele>
        <time>2013-12-07T14:59:20Z</time>
      </trkpt>
      <trkpt lat="44.04417" lon="6.12916">
        <ele>501.94555664062</ele>
        <time>2013-12-07T14:59:34Z</time>
      </trkpt>
      <trkpt lat="44.04409" lon="6.12897">
        <ele>501.94555664062</ele>
        <time>2013-12-07T14:59:51Z</time>
      </trkpt>
      <trkpt lat="44.0439" lon="6.12863">
        <ele>501.46484375</ele>
        <time>2013-12-07T15:00:18Z</time>
      </trkpt>
      <trkpt lat="44.04374" lon="6.12837">
        <ele>500.98413085938</ele>
        <time>2013-12-07T15:00:40Z</time>
      </trkpt>
      <trkpt lat="44.0437" lon="6.12825">
        <ele>500.98413085938</ele>
        <time>2013-12-07T15:00:49Z</time>
      </trkpt>
      <trkpt lat="44.0436" lon="6.12799">
        <ele>500.50354003906</ele>
        <time>2013-12-07T15:01:11Z</time>
      </trkpt>
      <trkpt lat="44.04348" lon="6.12766">
        <ele>500.50354003906</ele>
        <time>2013-12-07T15:01:36Z</time>
      </trkpt>
      <trkpt lat="44.04341" lon="6.12745">
        <ele>500.98413085938</ele>
        <time>2013-12-07T15:01:53Z</time>
      </trkpt>
      <trkpt lat="44.04329" lon="6.12716">
        <ele>500.98413085938</ele>
        <time>2013-12-07T15:02:15Z</time>
      </trkpt>
      <trkpt lat="44.04315" lon="6.12687">
        <ele>500.50354003906</ele>
        <time>2013-12-07T15:02:34Z</time>
      </trkpt>
      <trkpt lat="44.04302" lon="6.12659">
        <ele>500.02294921875</ele>
        <time>2013-12-07T15:02:53Z</time>
      </trkpt>
      <trkpt lat="44.04288" lon="6.12629">
        <ele>499.0615234375</ele>
        <time>2013-12-07T15:03:16Z</time>
      </trkpt>
      <trkpt lat="44.04272" lon="6.12602">
        <ele>498.10034179688</ele>
        <time>2013-12-07T15:03:38Z</time>
      </trkpt>
      <trkpt lat="44.04258" lon="6.12584">
        <ele>497.13891601562</ele>
        <time>2013-12-07T15:03:58Z</time>
      </trkpt>
      <trkpt lat="44.0425" lon="6.12589">
        <ele>495.69689941406</ele>
        <time>2013-12-07T15:04:07Z</time>
      </trkpt>
      <trkpt lat="44.04239" lon="6.12603">
        <ele>496.177734375</ele>
        <time>2013-12-07T15:04:23Z</time>
      </trkpt>
      <trkpt lat="44.04231" lon="6.12608">
        <ele>496.177734375</ele>
        <time>2013-12-07T15:04:36Z</time>
      </trkpt>
      <trkpt lat="44.04229" lon="6.12615">
        <ele>496.177734375</ele>
        <time>2013-12-07T15:04:43Z</time>
      </trkpt>
      <trkpt lat="44.04223" lon="6.12623">
        <ele>496.177734375</ele>
        <time>2013-12-07T15:04:57Z</time>
      </trkpt>
      <trkpt lat="44.04217" lon="6.12625">
        <ele>495.21618652344</ele>
        <time>2013-12-07T15:05:15Z</time>
      </trkpt>
      <trkpt lat="44.04212" lon="6.12621">
        <ele>495.21618652344</ele>
        <time>2013-12-07T15:05:20Z</time>
      </trkpt>
      <trkpt lat="44.042" lon="6.12618">
        <ele>495.69689941406</ele>
        <time>2013-12-07T15:05:29Z</time>
      </trkpt>
      <trkpt lat="44.04184" lon="6.126">
        <ele>495.69689941406</ele>
        <time>2013-12-07T15:05:47Z</time>
      </trkpt>
      <trkpt lat="44.0418" lon="6.12601">
        <ele>495.21618652344</ele>
        <time>2013-12-07T15:06:07Z</time>
      </trkpt>
      <trkpt lat="44.04172" lon="6.12602">
        <ele>494.25500488281</ele>
        <time>2013-12-07T15:06:20Z</time>
      </trkpt>
      <trkpt lat="44.0417" lon="6.12602">
        <ele>494.73559570312</ele>
        <time>2013-12-07T15:06:34Z</time>
      </trkpt>
      <trkpt lat="44.04169" lon="6.12602">
        <ele>494.25500488281</ele>
        <time>2013-12-07T15:06:49Z</time>
      </trkpt>
      <trkpt lat="44.04169" lon="6.12601">
        <ele>495.21618652344</ele>
        <time>2013-12-07T15:07:00Z</time>
      </trkpt>
    </trkseg>
  </trk>
</gpx>